PORTS® Data Listing: 9414750 Alameda, CA

CO-OPS RAW PORTS DATA

************************      PRELIMINARY DATA      ************************** 

     THIS RAW DATA HAS NOT BEEN SUBJECT TO THE NATIONAL OCEAN SERVICE'S        
     QUALITY CONTROL OR QUALITY ASSURANCE PROCEDURES AND DOES NOT MEET         
     THE CRITERIA AND STANDARDS OF OFFICIAL NATIONAL OCEAN SERVICE             
     DATA.  IT IS RELEASED FOR LIMITED PUBLIC USE AS PRELIMINARY DATA TO       
     BE USED ONLY WITH APPROPRIATE CAUTION.                                    

************************      PRELIMINARY DATA      ************************** 


       CD   -   Calendar date
       T    -   Time
       TZ   -   Timezone
       PW   -   Predicted water level (feet above MLLW)
       OW   -   Observed water level (feet above MLLW)
       WS   -   Wind speed (knots)
       WD   -   Wind direction (degrees true)
       WG   -   Wind gust (knots)
       AT   -   Air temperature (degrees farenheit)
       WT   -   Water temperature (degrees farenheit)
       AP   -   Air pressure (millibars)
       SA   -   Salinty (PSU - Practical Salinity Units)
       SG   -   Specific gravity
       RH   -   Relative humidity
       AG   -   Air gap (feet)
       VI   -   Visibility (nautical miles)

       ** NOTE **
       A variable that has its data fields filled with "9"s, indicates that
       data was not collected for that sample period.
       **********


STATION NAME: Alameda (9414750)
****************************************************************************************************
    CD       T    TZ    PW     OW    WS   WD   WG    AT    WT    AP    SA    SG     RH    AG   VI
****************************************************************************************************
2019/11/14 23:12 PST    3.17   3.41    4  273    8  57.2  57.6 1021.5 -9.9 -9.999 -99.9 -99.99 -9.99
2019/11/14 23:18 PST    3.29   3.53    4  272    7  56.8  57.6 1021.5 -9.9 -9.999 -99.9 -99.99 -9.99
2019/11/14 23:24 PST    3.40   3.62    4  267    6  57.0  57.6 1021.4 -9.9 -9.999 -99.9 -99.99 -9.99
2019/11/14 23:30 PST    3.52   3.74    5  265    6  56.8  57.6 1021.6 -9.9 -9.999 -99.9 -99.99 -9.99
2019/11/14 23:36 PST    3.63   3.86    5  270    6  57.2  57.6 1021.6 -9.9 -9.999 -99.9 -99.99 -9.99
2019/11/14 23:42 PST    3.74   3.99    6  258    9  57.0  57.6 1021.6 -9.9 -9.999 -99.9 -99.99 -9.99
2019/11/14 23:48 PST    3.84   4.12    5  260   10  57.6  57.6 1021.6 -9.9 -9.999 -99.9 -99.99 -9.99
2019/11/14 23:54 PST    3.95   4.23    5  267    7  57.4  57.6 1021.7 -9.9 -9.999 -99.9 -99.99 -9.99
2019/11/15 00:00 PST    4.05   4.31    5  269    6  57.0  57.6 1021.7 -9.9 -9.999 -99.9 -99.99 -9.99
2019/11/15 00:06 PST    4.15   4.39    5  269    8  57.0  57.6 1021.9 -9.9 -9.999 -99.9 -99.99 -9.99
2019/11/15 00:12 PST    4.24   4.47    6  281    7  57.0  57.6 1021.9 -9.9 -9.999 -99.9 -99.99 -9.99
2019/11/15 00:18 PST    4.34   4.56    6  279    8  57.0  57.6 1021.9 -9.9 -9.999 -99.9 -99.99 -9.99
2019/11/15 00:24 PST    4.43   4.68    5  279    7  57.2  57.6 1022.0 -9.9 -9.999 -99.9 -99.99 -9.99
2019/11/15 00:30 PST    4.51   4.79    4  282    5  57.0  57.6 1022.0 -9.9 -9.999 -99.9 -99.99 -9.99
2019/11/15 00:36 PST    4.59   4.85    3  281    4  57.0  57.6 1022.0 -9.9 -9.999 -99.9 -99.99 -9.99
2019/11/15 00:42 PST    4.67   4.91    3  281    4  57.0  57.6 1022.1 -9.9 -9.999 -99.9 -99.99 -9.99
2019/11/15 00:48 PST    4.75   5.00    4  287    4  57.0  57.6 1022.0 -9.9 -9.999 -99.9 -99.99 -9.99
2019/11/15 00:54 PST    4.82   5.08    4  280    5  57.0  57.6 1022.1 -9.9 -9.999 -99.9 -99.99 -9.99
2019/11/15 01:00 PST    4.88   5.15    4  274    5  56.8  57.6 1022.1 -9.9 -9.999 -99.9 -99.99 -9.99
2019/11/15 01:06 PST    4.94   5.23    2  270    5  57.0  57.6 1022.0 -9.9 -9.999 -99.9 -99.99 -9.99
2019/11/15 01:12 PST    5.00   5.31    2  268    3  56.8  57.6 1022.1 -9.9 -9.999 -99.9 -99.99 -9.99
2019/11/15 01:18 PST    5.05   5.35    3  253    3  57.0  57.6 1022.2 -9.9 -9.999 -99.9 -99.99 -9.99
2019/11/15 01:24 PST    5.10   5.37    2  250    3  56.8  57.6 1022.3 -9.9 -9.999 -99.9 -99.99 -9.99
2019/11/15 01:30 PST    5.15   5.41    3  230    4  57.0  57.6 1022.3 -9.9 -9.999 -99.9 -99.99 -9.99
2019/11/15 01:36 PST    5.18   5.44    3  253    4  57.0  57.6 1022.3 -9.9 -9.999 -99.9 -99.99 -9.99
2019/11/15 01:42 PST    5.22   5.48    2  224    3  57.0  57.4 1022.2 -9.9 -9.999 -99.9 -99.99 -9.99
2019/11/15 01:48 PST    5.25   5.52    2  192    2  56.8  57.4 1022.2 -9.9 -9.999 -99.9 -99.99 -9.99
2019/11/15 01:54 PST    5.27   5.56    1  151    2  56.8  57.4 1022.1 -9.9 -9.999 -99.9 -99.99 -9.99
2019/11/15 02:00 PST    5.28   5.57    1  181    2  57.0  57.4 1022.1 -9.9 -9.999 -99.9 -99.99 -9.99
2019/11/15 02:06 PST    5.30   5.58    2  193    2  57.0  57.4 1022.1 -9.9 -9.999 -99.9 -99.99 -9.99
2019/11/15 02:12 PST    5.30   5.54    2  181    3  57.2  57.4 1022.1 -9.9 -9.999 -99.9 -99.99 -9.99
2019/11/15 02:18 PST    5.30   5.55    3  188    4  57.0  57.4 1022.1 -9.9 -9.999 -99.9 -99.99 -9.99
2019/11/15 02:24 PST    5.30   5.57    4  212    5  57.2  57.4 1022.3 -9.9 -9.999 -99.9 -99.99 -9.99
2019/11/15 02:30 PST    5.29   5.60    4  215    4  57.2  57.4 1022.4 -9.9 -9.999 -99.9 -99.99 -9.99
2019/11/15 02:36 PST    5.27   5.60    4  224    5  57.2  57.4 1022.4 -9.9 -9.999 -99.9 -99.99 -9.99
2019/11/15 02:42 PST    5.25   5.57    4  252    5  57.0  57.4 1022.4 -9.9 -9.999 -99.9 -99.99 -9.99
2019/11/15 02:48 PST    5.22   5.52    2  250    3  57.0  57.4 1022.3 -9.9 -9.999 -99.9 -99.99 -9.99
2019/11/15 02:54 PST    5.19   5.46    3  295    4  56.8  57.4 1022.3 -9.9 -9.999 -99.9 -99.99 -9.99
2019/11/15 03:00 PST    5.15   5.40    2  315    4  56.3  57.4 1022.2 -9.9 -9.999 -99.9 -99.99 -9.99
2019/11/15 03:06 PST    5.11   5.37    3  284    4  56.7  57.4 1022.1 -9.9 -9.999 -99.9 -99.99 -9.99
2019/11/15 03:12 PST    5.06   5.33    4  290    5  56.3  57.4 1022.2 -9.9 -9.999 -99.9 -99.99 -9.99
2019/11/15 03:18 PST    5.01   5.26    5  280    6  56.5  57.4 1022.2 -9.9 -9.999 -99.9 -99.99 -9.99
2019/11/15 03:24 PST    4.95   5.20    1  279    5  56.5  57.4 1022.2 -9.9 -9.999 -99.9 -99.99 -9.99
2019/11/15 03:30 PST    4.89   5.12    0   69    2  56.5  57.4 1022.2 -9.9 -9.999 -99.9 -99.99 -9.99
2019/11/15 03:36 PST    4.83   5.04    1  333    2  56.3  57.4 1022.3 -9.9 -9.999 -99.9 -99.99 -9.99
2019/11/15 03:42 PST    4.76   4.96    1  292    2  56.5  57.4 1022.3 -9.9 -9.999 -99.9 -99.99 -9.99
2019/11/15 03:48 PST    4.70   4.88    1  296    2  56.5  57.4 1022.4 -9.9 -9.999 -99.9 -99.99 -9.99
2019/11/15 03:54 PST    4.62   4.79    1  307    1  56.5  57.6 1022.4 -9.9 -9.999 -99.9 -99.99 -9.99
2019/11/15 04:00 PST    4.55   4.73    1  302    2  56.7  57.6 1022.4 -9.9 -9.999 -99.9 -99.99 -9.99
2019/11/15 04:06 PST    4.48   4.64    1  312    2  56.7  57.4 1022.4 -9.9 -9.999 -99.9 -99.99 -9.99
2019/11/15 04:12 PST    4.40   4.56    1    2    1  56.7  57.6 1022.5 -9.9 -9.999 -99.9 -99.99 -9.99
2019/11/15 04:18 PST    4.32   4.47    1   86    1  56.7  57.6 1022.5 -9.9 -9.999 -99.9 -99.99 -9.99
2019/11/15 04:24 PST    4.24   4.38    1  116    1  56.5  57.6 1022.4 -9.9 -9.999 -99.9 -99.99 -9.99
2019/11/15 04:30 PST    4.17   4.29    1   99    1  56.5  57.6 1022.4 -9.9 -9.999 -99.9 -99.99 -9.99
2019/11/15 04:36 PST    4.09   4.21    1   83    2  56.3  57.4 1022.3 -9.9 -9.999 -99.9 -99.99 -9.99
2019/11/15 04:42 PST    4.01   4.14    1  119    2  56.3  57.4 1022.3 -9.9 -9.999 -99.9 -99.99 -9.99
2019/11/15 04:48 PST    3.94   4.08    0  137    1  56.3  57.4 1022.3 -9.9 -9.999 -99.9 -99.99 -9.99
2019/11/15 04:54 PST    3.86   4.00    1  117    2  56.3  57.4 1022.3 -9.9 -9.999 -99.9 -99.99 -9.99
2019/11/15 05:00 PST    3.79   3.90    2  105    3  56.3  57.4 1022.3 -9.9 -9.999 -99.9 -99.99 -9.99
2019/11/15 05:06 PST    3.72   3.83    2   96    3  56.1  57.4 1022.3 -9.9 -9.999 -99.9 -99.99 -9.99
2019/11/15 05:12 PST    3.65   3.76    2   93    3  56.1  57.4 1022.3 -9.9 -9.999 -99.9 -99.99 -9.99
2019/11/15 05:18 PST    3.58   3.68    2   91    3  56.1  57.4 1022.3 -9.9 -9.999 -99.9 -99.99 -9.99
2019/11/15 05:24 PST    3.52   3.61    2   92    4  56.1  57.4 1022.3 -9.9 -9.999 -99.9 -99.99 -9.99
2019/11/15 05:30 PST    3.46   3.54    2  105    3  56.1  57.4 1022.3 -9.9 -9.999 -99.9 -99.99 -9.99
2019/11/15 05:36 PST    3.40   3.51    1  110    2  56.1  57.4 1022.4 -9.9 -9.999 -99.9 -99.99 -9.99
2019/11/15 05:42 PST    3.35   3.46    1   89    2  55.9  57.4 1022.4 -9.9 -9.999 -99.9 -99.99 -9.99
2019/11/15 05:48 PST    3.30   3.38    3   88    4  55.9  57.4 1022.4 -9.9 -9.999 -99.9 -99.99 -9.99
2019/11/15 05:54 PST    3.25   3.33    2   92    4  55.8  57.4 1022.5 -9.9 -9.999 -99.9 -99.99 -9.99
2019/11/15 06:00 PST    3.21   3.30    2   91    3  55.6  57.4 1022.5 -9.9 -9.999 -99.9 -99.99 -9.99
2019/11/15 06:06 PST    3.17   3.22    2   92    3  55.6  57.4 1022.5 -9.9 -9.999 -99.9 -99.99 -9.99
2019/11/15 06:12 PST    3.13   3.17    1  100    2  55.6  57.4 1022.5 -9.9 -9.999 -99.9 -99.99 -9.99
2019/11/15 06:18 PST    3.10   3.17    0  106    1  55.6  57.4 1022.6 -9.9 -9.999 -99.9 -99.99 -9.99
2019/11/15 06:24 PST    3.08   3.17    0  102    1  55.8  57.4 1022.8 -9.9 -9.999 -99.9 -99.99 -9.99
2019/11/15 06:30 PST    3.05   3.16    0  163    0  55.9  57.4 1022.9 -9.9 -9.999 -99.9 -99.99 -9.99
2019/11/15 06:36 PST    3.03   3.09    1   89    1  55.9  57.4 1022.8 -9.9 -9.999 -99.9 -99.99 -9.99
2019/11/15 06:42 PST    3.02   3.05    1   73    1  55.9  57.4 1022.8 -9.9 -9.999 -99.9 -99.99 -9.99
2019/11/15 06:48 PST    3.01   3.02    1   82    1  55.9  57.4 1022.8 -9.9 -9.999 -99.9 -99.99 -9.99
2019/11/15 06:54 PST    3.00   3.02    1   47    2  55.9  57.4 1022.8 -9.9 -9.999 -99.9 -99.99 -9.99
2019/11/15 07:00 PST    3.00   3.02    1   54    1  55.9  57.4 1022.7 -9.9 -9.999 -99.9 -99.99 -9.99
2019/11/15 07:06 PST    3.01   3.05    0  317    1  55.9  57.4 1022.7 -9.9 -9.999 -99.9 -99.99 -9.99
2019/11/15 07:12 PST    3.01   3.10    1  300    1  56.1  57.4 1022.8 -9.9 -9.999 -99.9 -99.99 -9.99
2019/11/15 07:18 PST    3.02   3.09    1  295    1  56.3  57.4 1022.8 -9.9 -9.999 -99.9 -99.99 -9.99
2019/11/15 07:24 PST    3.04   3.08    1  301    2  56.5  57.4 1022.9 -9.9 -9.999 -99.9 -99.99 -9.99
2019/11/15 07:30 PST    3.06   3.16    0    0    1  56.5  57.4 1023.0 -9.9 -9.999 -99.9 -99.99 -9.99
2019/11/15 07:36 PST    3.09   3.22    0   91    1  56.7  57.4 1023.1 -9.9 -9.999 -99.9 -99.99 -9.99
2019/11/15 07:42 PST    3.11   3.27    0   98    1  57.2  57.4 1023.2 -9.9 -9.999 -99.9 -99.99 -9.99
2019/11/15 07:48 PST    3.15   3.32    0  102    1  57.9  57.4 1023.3 -9.9 -9.999 -99.9 -99.99 -9.99
2019/11/15 07:54 PST    3.19   3.37    1  109    2  58.1  57.4 1023.3 -9.9 -9.999 -99.9 -99.99 -9.99
2019/11/15 08:00 PST    3.23   3.42    2  109    2  57.9  57.4 1023.3 -9.9 -9.999 -99.9 -99.99 -9.99
2019/11/15 08:06 PST    3.27   3.47    1  138    2  58.1  57.4 1023.4 -9.9 -9.999 -99.9 -99.99 -9.99
2019/11/15 08:12 PST    3.32   3.53    1  163    2  58.5  57.4 1023.5 -9.9 -9.999 -99.9 -99.99 -9.99
2019/11/15 08:18 PST    3.38   3.58    2  121    3  58.1  57.4 1023.6 -9.9 -9.999 -99.9 -99.99 -9.99
2019/11/15 08:24 PST    3.44   3.64    2  146    3  57.7  57.4 1023.7 -9.9 -9.999 -99.9 -99.99 -9.99
2019/11/15 08:30 PST    3.50   3.69    2  183    3  57.7  57.4 1023.8 -9.9 -9.999 -99.9 -99.99 -9.99
2019/11/15 08:36 PST    3.57   3.73    2  203    2  57.4  57.4 1023.9 -9.9 -9.999 -99.9 -99.99 -9.99
2019/11/15 08:42 PST    3.64   3.82    2  222    2  57.2  57.4 1024.0 -9.9 -9.999 -99.9 -99.99 -9.99
2019/11/15 08:48 PST    3.71   3.90    4  279    4  57.0  57.4 1024.0 -9.9 -9.999 -99.9 -99.99 -9.99
2019/11/15 08:54 PST    3.79   3.98    4  284    5  57.4  57.4 1024.1 -9.9 -9.999 -99.9 -99.99 -9.99
2019/11/15 09:00 PST    3.87   4.07    4  286    6  57.4  57.4 1024.1 -9.9 -9.999 -99.9 -99.99 -9.99
2019/11/15 09:06 PST    3.96   4.17    4  283    5  57.2  57.4 1024.1 -9.9 -9.999 -99.9 -99.99 -9.99
2019/11/15 09:12 PST    4.04   4.25    2  299    5  57.4  57.4 1024.0 -9.9 -9.999 -99.9 -99.99 -9.99
2019/11/15 09:18 PST    4.13   4.37    2  300    4  57.6  57.4 1024.1 -9.9 -9.999 -99.9 -99.99 -9.99
2019/11/15 09:24 PST    4.23   4.50    1  275    4  57.7  57.2 1024.0 -9.9 -9.999 -99.9 -99.99 -9.99
2019/11/15 09:30 PST    4.32   4.62    2  262    3  57.7  57.2 1024.1 -9.9 -9.999 -99.9 -99.99 -9.99
2019/11/15 09:36 PST    4.42   4.71    3  252    3  57.6  57.2 1024.2 -9.9 -9.999 -99.9 -99.99 -9.99
2019/11/15 09:42 PST    4.52   4.82    3  256    4  57.6  57.2 1024.2 -9.9 -9.999 -99.9 -99.99 -9.99
2019/11/15 09:48 PST    4.62   4.92    2  271    3  57.9  57.2 1024.1 -9.9 -9.999 -99.9 -99.99 -9.99
2019/11/15 09:54 PST    4.72   5.03    3  267    4  57.9  57.2 1024.1 -9.9 -9.999 -99.9 -99.99 -9.99
2019/11/15 10:00 PST    4.83   5.15    4  269    4  57.7  57.2 1024.1 -9.9 -9.999 -99.9 -99.99 -9.99
2019/11/15 10:06 PST    4.93   5.27    4  275    5  57.7  57.2 1024.1 -9.9 -9.999 -99.9 -99.99 -9.99
2019/11/15 10:12 PST    5.03   5.36    4  268    4  57.9  57.2 1024.2 -9.9 -9.999 -99.9 -99.99 -9.99
2019/11/15 10:18 PST    5.14   5.45    4  275    5  57.7  57.2 1024.2 -9.9 -9.999 -99.9 -99.99 -9.99
2019/11/15 10:24 PST    5.24   5.51    4  273    6  57.9  57.2 1024.2 -9.9 -9.999 -99.9 -99.99 -9.99
2019/11/15 10:30 PST    5.34   5.60    4  261    5  57.9  57.2 1024.2 -9.9 -9.999 -99.9 -99.99 -9.99
2019/11/15 10:36 PST    5.44   5.71    5  277    7  58.1  57.2 1024.1 -9.9 -9.999 -99.9 -99.99 -9.99
2019/11/15 10:42 PST    5.54   5.81    4  272    6  58.3  57.2 1024.1 -9.9 -9.999 -99.9 -99.99 -9.99
2019/11/15 10:48 PST    5.64   5.91    3  276    5  58.6  57.2 1023.9 -9.9 -9.999 -99.9 -99.99 -9.99
2019/11/15 10:54 PST    5.73   6.00    4  262    5  58.5  57.2 1023.7 -9.9 -9.999 -99.9 -99.99 -9.99
2019/11/15 11:00 PST    5.82   6.11    4  261    6  57.9  57.2 1023.7 -9.9 -9.999 -99.9 -99.99 -9.99
2019/11/15 11:06 PST    5.91   6.19    6  276    7  57.7  57.2 1023.8 -9.9 -9.999 -99.9 -99.99 -9.99
2019/11/15 11:12 PST    6.00   6.28    6  277    7  57.4  57.2 1023.7 -9.9 -9.999 -99.9 -99.99 -9.99
2019/11/15 11:18 PST    6.08   6.34    6  279    7  57.4  57.2 1023.6 -9.9 -9.999 -99.9 -99.99 -9.99
2019/11/15 11:24 PST    6.16   6.42    6  275    7  57.4  57.4 1023.5 -9.9 -9.999 -99.9 -99.99 -9.99
2019/11/15 11:30 PST    6.23   6.51    7  278    7  57.6  57.4 1023.4 -9.9 -9.999 -99.9 -99.99 -9.99
2019/11/15 11:36 PST    6.30   6.59    7  278    8  58.3  57.4 1023.4 -9.9 -9.999 -99.9 -99.99 -9.99
2019/11/15 11:42 PST    6.37   6.66    7  280    9  59.2  57.4 1023.3 -9.9 -9.999 -99.9 -99.99 -9.99
2019/11/15 11:48 PST    6.43   6.70    7  280    9  59.7  57.4 1023.2 -9.9 -9.999 -99.9 -99.99 -9.99
2019/11/15 11:54 PST    6.49   6.76    6  281    8  60.1  57.4 1023.2 -9.9 -9.999 -99.9 -99.99 -9.99
2019/11/15 12:00 PST    6.54   6.83    7  280    9  60.1  57.4 1023.2 -9.9 -9.999 -99.9 -99.99 -9.99
2019/11/15 12:06 PST    6.58   6.89    8  279   10  60.3  57.4 1023.2 -9.9 -9.999 -99.9 -99.99 -9.99
2019/11/15 12:12 PST    6.62   6.95    9  283   11  60.3  57.4 1023.1 -9.9 -9.999 -99.9 -99.99 -9.99
2019/11/15 12:18 PST    6.66   6.96    8  279   11  60.3  57.4 1023.0 -9.9 -9.999 -99.9 -99.99 -9.99
2019/11/15 12:24 PST    6.69   6.95    7  281   11  60.4  57.4 1022.8 -9.9 -9.999 -99.9 -99.99 -9.99
2019/11/15 12:30 PST    6.71   6.96    7  280   10  60.3  57.4 1022.6 -9.9 -9.999 -99.9 -99.99 -9.99
2019/11/15 12:36 PST    6.73   7.00    5  277    7  60.4  57.4 1022.5 -9.9 -9.999 -99.9 -99.99 -9.99
2019/11/15 12:42 PST    6.74   7.03    4  281    6  61.2  57.4 1022.3 -9.9 -9.999 -99.9 -99.99 -9.99
2019/11/15 12:48 PST    6.74   7.02    3  256    5  61.0  57.4 1022.2 -9.9 -9.999 -99.9 -99.99 -9.99
2019/11/15 12:54 PST    6.74   6.99    4  258    5  60.4  57.4 1022.0 -9.9 -9.999 -99.9 -99.99 -9.99
2019/11/15 13:00 PST    6.73   6.97    4  270    5  61.7  57.4 1021.9 -9.9 -9.999 -99.9 -99.99 -9.99
2019/11/15 13:06 PST    6.72   6.95    5  276    6  62.4  57.6 1021.8 -9.9 -9.999 -99.9 -99.99 -9.99
2019/11/15 13:12 PST    6.70   6.92    7  282   10  61.3  57.6 1021.7 -9.9 -9.999 -99.9 -99.99 -9.99
2019/11/15 13:18 PST    6.67   6.90    7  279    9  61.0  57.6 1021.7 -9.9 -9.999 -99.9 -99.99 -9.99
2019/11/15 13:24 PST    6.64   6.87    7  280    9  61.3  57.6 1021.6 -9.9 -9.999 -99.9 -99.99 -9.99
2019/11/15 13:30 PST    6.60   6.83    6  283    9  61.5  57.6 1021.5 -9.9 -9.999 -99.9 -99.99 -9.99
2019/11/15 13:36 PST    6.55   6.72    7  279    9  61.3  57.6 1021.4 -9.9 -9.999 -99.9 -99.99 -9.99
2019/11/15 13:42 PST    6.49   6.68    8  280    9  61.5  57.6 1021.4 -9.9 -9.999 -99.9 -99.99 -9.99
2019/11/15 13:48 PST    6.43   6.62    8  277   10  60.8  57.6 1021.4 -9.9 -9.999 -99.9 -99.99 -9.99
2019/11/15 13:54 PST    6.37   6.52    9  279   10  61.0  57.6 1021.5 -9.9 -9.999 -99.9 -99.99 -9.99
2019/11/15 14:00 PST    6.29   6.40    8  280   10  61.5  57.6 1021.5 -9.9 -9.999 -99.9 -99.99 -9.99
2019/11/15 14:06 PST    6.21   6.30    7  280    8  62.2  57.6 1021.4 -9.9 -9.999 -99.9 -99.99 -9.99
2019/11/15 14:12 PST    6.13   6.19    7  278    9  62.6  57.6 1021.3 -9.9 -9.999 -99.9 -99.99 -9.99
2019/11/15 14:18 PST    6.03   6.06    8  281    9  62.1  57.6 1021.3 -9.9 -9.999 -99.9 -99.99 -9.99
2019/11/15 14:24 PST    5.93   5.93    8  281    9  62.4  57.6 1021.3 -9.9 -9.999 -99.9 -99.99 -9.99
2019/11/15 14:30 PST    5.82   5.83    8  280   10  62.6  57.6 1021.3 -9.9 -9.999 -99.9 -99.99 -9.99
2019/11/15 14:36 PST    5.71   5.68    8  283    9  61.7  57.6 1021.4 -9.9 -9.999 -99.9 -99.99 -9.99
2019/11/15 14:42 PST    5.59   5.52    8  282   10  62.1  57.6 1021.4 -9.9 -9.999 -99.9 -99.99 -9.99
2019/11/15 14:48 PST    5.47   5.40    7  282   11  61.3  57.6 1021.5 -9.9 -9.999 -99.9 -99.99 -9.99
2019/11/15 14:54 PST    5.34   5.27    9  279   11  61.0  57.6 1021.6 -9.9 -9.999 -99.9 -99.99 -9.99
2019/11/15 15:00 PST    5.20   5.12    9  279   12  60.8  57.6 1021.6 -9.9 -9.999 -99.9 -99.99 -9.99
2019/11/15 15:06 PST    5.06   4.95    8  273   11  60.4  57.6 1021.6 -9.9 -9.999 -99.9 -99.99 -9.99
2019/11/15 15:12 PST    4.91   4.79    8  277   12  60.1  57.6 1021.6 -9.9 -9.999 -99.9 -99.99 -9.99
2019/11/15 15:18 PST    4.76   4.61    8  277   10  59.9  57.6 1021.5 -9.9 -9.999 -99.9 -99.99 -9.99
2019/11/15 15:24 PST    4.60   4.45    9  280   12  59.9  57.7 1021.5 -9.9 -9.999 -99.9 -99.99 -9.99
2019/11/15 15:30 PST    4.44   4.29    8  275   11  59.7  57.7 1021.5 -9.9 -9.999 -99.9 -99.99 -9.99
2019/11/15 15:36 PST    4.28   4.14    9  273   11  59.5  57.7 1021.6 -9.9 -9.999 -99.9 -99.99 -9.99
2019/11/15 15:42 PST    4.11   3.97    9  280   13  59.4  57.7 1021.6 -9.9 -9.999 -99.9 -99.99 -9.99
2019/11/15 15:48 PST    3.95   3.80   11  279   13  59.2  57.7 1021.6 -9.9 -9.999 -99.9 -99.99 -9.99
2019/11/15 15:54 PST    3.77   3.64    9  278   12  59.0  57.7 1021.5 -9.9 -9.999 -99.9 -99.99 -9.99
2019/11/15 16:00 PST    3.60   3.48    9  280   12  59.0  57.9 1021.4 -9.9 -9.999 -99.9 -99.99 -9.99
2019/11/15 16:06 PST    3.42   3.31    7  279   10  59.0  57.9 1021.4 -9.9 -9.999 -99.9 -99.99 -9.99
2019/11/15 16:12 PST    3.25   3.18    7  283   11  59.0  57.9 1021.4 -9.9 -9.999 -99.9 -99.99 -9.99
2019/11/15 16:18 PST    3.07   3.03    7  280    9  58.8  57.9 1021.4 -9.9 -9.999 -99.9 -99.99 -9.99
2019/11/15 16:24 PST    2.90   2.88    7  281    9  58.8  57.9 1021.4 -9.9 -9.999 -99.9 -99.99 -9.99
2019/11/15 16:30 PST    2.72   2.73    6  278    9  58.8  57.9 1021.4 -9.9 -9.999 -99.9 -99.99 -9.99
2019/11/15 16:36 PST    2.55   2.59    6  284    8  58.6  57.7 1021.4 -9.9 -9.999 -99.9 -99.99 -9.99
2019/11/15 16:42 PST    2.37   2.41    7  284    8  58.5  57.7 1021.5 -9.9 -9.999 -99.9 -99.99 -9.99
2019/11/15 16:48 PST    2.20   2.27    6  285    8  58.5  57.7 1021.5 -9.9 -9.999 -99.9 -99.99 -9.99
2019/11/15 16:54 PST    2.03   2.14    5  289    7  58.5  57.9 1021.5 -9.9 -9.999 -99.9 -99.99 -9.99
2019/11/15 17:00 PST    1.87   2.03    5  287    6  58.5  57.9 1021.4 -9.9 -9.999 -99.9 -99.99 -9.99
2019/11/15 17:06 PST    1.71   1.87    4  292    7  58.5  57.9 1021.5 -9.9 -9.999 -99.9 -99.99 -9.99
2019/11/15 17:12 PST    1.55   1.74    4  284    5  58.5  57.9 1021.5 -9.9 -9.999 -99.9 -99.99 -9.99
2019/11/15 17:18 PST    1.39   1.61    4  284    6  58.3  57.9 1021.5 -9.9 -9.999 -99.9 -99.99 -9.99
2019/11/15 17:24 PST    1.24   1.51    4  280    6  58.3  57.9 1021.5 -9.9 -9.999 -99.9 -99.99 -9.99
2019/11/15 17:30 PST    1.10   1.39    4  287    5  58.3  57.9 1021.4 -9.9 -9.999 -99.9 -99.99 -9.99
2019/11/15 17:36 PST    0.96   1.28    4  284    6  58.3  57.9 1021.4 -9.9 -9.999 -99.9 -99.99 -9.99
2019/11/15 17:42 PST    0.83   1.16    5  281    6  58.3  57.9 1021.4 -9.9 -9.999 -99.9 -99.99 -9.99
2019/11/15 17:48 PST    0.70   1.05    4  280    6  58.1  57.9 1021.4 -9.9 -9.999 -99.9 -99.99 -9.99
2019/11/15 17:54 PST    0.58   0.91    4  285    5  58.3  57.9 1021.5 -9.9 -9.999 -99.9 -99.99 -9.99
2019/11/15 18:00 PST    0.46   0.80    3  284    4  58.3  57.9 1021.5 -9.9 -9.999 -99.9 -99.99 -9.99
2019/11/15 18:06 PST    0.35   0.69    3  277    5  58.3  57.9 1021.5 -9.9 -9.999 -99.9 -99.99 -9.99
2019/11/15 18:12 PST    0.25   0.61    3  279    5  58.3  58.1 1021.6 -9.9 -9.999 -99.9 -99.99 -9.99
2019/11/15 18:18 PST    0.15   0.53    3  281    4  58.3  58.1 1021.6 -9.9 -9.999 -99.9 -99.99 -9.99
2019/11/15 18:24 PST    0.06   0.42    3  281    4  58.3  58.1 1021.5 -9.9 -9.999 -99.9 -99.99 -9.99
2019/11/15 18:30 PST   -0.03   0.31    3  280    4  58.3  58.1 1021.5 -9.9 -9.999 -99.9 -99.99 -9.99
2019/11/15 18:36 PST   -0.10   0.23    3  272    4  58.3  58.1 1021.4 -9.9 -9.999 -99.9 -99.99 -9.99
2019/11/15 18:42 PST   -0.17   0.17    4  281    5  58.1  57.9 1021.5 -9.9 -9.999 -99.9 -99.99 -9.99
2019/11/15 18:48 PST   -0.24   0.10    4  278    5  58.1  57.9 1021.5 -9.9 -9.999 -99.9 -99.99 -9.99
2019/11/15 18:54 PST   -0.30   0.04    5  278    6  57.9  57.9 1021.6 -9.9 -9.999 -99.9 -99.99 -9.99
2019/11/15 19:00 PST   -0.35  -0.05    5  277    7  57.7  57.9 1021.6 -9.9 -9.999 -99.9 -99.99 -9.99
2019/11/15 19:06 PST   -0.39  -0.13    5  282    7  57.7  58.1 1021.5 -9.9 -9.999 -99.9 -99.99 -9.99
2019/11/15 19:12 PST   -0.43  -0.17    5  280    8  57.6  58.1 1021.6 -9.9 -9.999 -99.9 -99.99 -9.99
2019/11/15 19:18 PST   -0.46  -0.20    5  283    7  57.4  58.1 1021.6 -9.9 -9.999 -99.9 -99.99 -9.99
2019/11/15 19:24 PST   -0.49  -0.25    6  283    8  57.4  58.1 1021.7 -9.9 -9.999 -99.9 -99.99 -9.99
2019/11/15 19:30 PST   -0.51  -0.32    4  280    7  57.2  58.1 1021.8 -9.9 -9.999 -99.9 -99.99 -9.99
2019/11/15 19:36 PST   -0.52  -0.36    4  284    5  57.2  58.1 1021.7 -9.9 -9.999 -99.9 -99.99 -9.99
2019/11/15 19:42 PST   -0.53  -0.41    3  282    5  57.2  58.1 1021.7 -9.9 -9.999 -99.9 -99.99 -9.99
2019/11/15 19:48 PST   -0.53  -0.43    3  284    5  57.0  58.1 1021.7 -9.9 -9.999 -99.9 -99.99 -9.99
2019/11/15 19:54 PST   -0.53  -0.42    2  283    4  56.8  58.1 1021.5 -9.9 -9.999 -99.9 -99.99 -9.99
2019/11/15 20:00 PST   -0.52  -0.41    3  281    3  56.7  58.1 1021.4 -9.9 -9.999 -99.9 -99.99 -9.99
2019/11/15 20:06 PST   -0.50  -0.42    3  282    4  56.5  58.3 1021.5 -9.9 -9.999 -99.9 -99.99 -9.99
2019/11/15 20:12 PST   -0.48  -0.44    2  280    4  56.5  58.3 1021.4 -9.9 -9.999 -99.9 -99.99 -9.99
2019/11/15 20:18 PST   -0.45  -0.42    2  261    2  56.7  58.3 1021.2 -9.9 -9.999 -99.9 -99.99 -9.99
2019/11/15 20:24 PST   -0.42  -0.35    2  287    3  56.5  58.3 1021.3 -9.9 -9.999 -99.9 -99.99 -9.99
2019/11/15 20:30 PST   -0.38  -0.30    2  275    4  56.5  58.3 1021.3 -9.9 -9.999 -99.9 -99.99 -9.99
2019/11/15 20:36 PST   -0.34  -0.25    2  267    3  56.7  58.3 1021.4 -9.9 -9.999 -99.9 -99.99 -9.99
2019/11/15 20:42 PST   -0.29  -0.25    3  264    3  56.8  58.3 1021.4 -9.9 -9.999 -99.9 -99.99 -9.99
2019/11/15 20:48 PST   -0.24  -0.21    2  264    3  56.7  58.3 1021.5 -9.9 -9.999 -99.9 -99.99 -9.99
2019/11/15 20:54 PST   -0.18  -0.16    1  285    3  56.7  58.3 1021.5 -9.9 -9.999 -99.9 -99.99 -9.99
2019/11/15 21:00 PST   -0.11  -0.11    2  264    2  56.7  58.3 1021.6 -9.9 -9.999 -99.9 -99.99 -9.99
2019/11/15 21:06 PST   -0.04  -0.06    2  259    3  56.8  58.3 1021.6 -9.9 -9.999 -99.9 -99.99 -9.99
2019/11/15 21:12 PST    0.03   0.03    2  264    2  56.7  58.3 1021.6 -9.9 -9.999 -99.9 -99.99 -9.99
2019/11/15 21:18 PST    0.11   0.12    2  259    3  56.7  58.3 1021.8 -9.9 -9.999 -99.9 -99.99 -9.99
2019/11/15 21:24 PST    0.19   0.21    3  283    4  56.7  58.3 1021.9 -9.9 -9.999 -99.9 -99.99 -9.99
2019/11/15 21:30 PST    0.27   0.28    4  257    5  56.7  58.3 1022.0 -9.9 -9.999 -99.9 -99.99 -9.99
2019/11/15 21:36 PST    0.36   0.36    2  281    4  56.5  58.3 1022.1 -9.9 -9.999 -99.9 -99.99 -9.99
2019/11/15 21:42 PST    0.46   0.45    2  270    5  56.5  58.3 1022.1 -9.9 -9.999 -99.9 -99.99 -9.99
2019/11/15 21:48 PST    0.56   0.55    2  261    3  56.5  58.3 1022.0 -9.9 -9.999 -99.9 -99.99 -9.99
2019/11/15 21:54 PST    0.66   0.64    2  275    3  56.5  58.3 1022.0 -9.9 -9.999 -99.9 -99.99 -9.99
2019/11/15 22:00 PST    0.76   0.75    1  286    2  56.3  58.3 1021.9 -9.9 -9.999 -99.9 -99.99 -9.99
2019/11/15 22:06 PST    0.87   0.86    1  278    1  56.5  58.3 1021.8 -9.9 -9.999 -99.9 -99.99 -9.99
2019/11/15 22:12 PST    0.98   1.00    1  262    1  56.5  58.3 1021.8 -9.9 -9.999 -99.9 -99.99 -9.99
2019/11/15 22:18 PST    1.09   1.13    1  298    1  56.5  58.3 1022.0 -9.9 -9.999 -99.9 -99.99 -9.99
2019/11/15 22:24 PST    1.21   1.26    0   57    1  56.3  58.3 1021.9 -9.9 -9.999 -99.9 -99.99 -9.99
2019/11/15 22:30 PST    1.32   1.38    0   80    1  56.1  58.3 1021.8 -9.9 -9.999 -99.9 -99.99 -9.99
2019/11/15 22:36 PST    1.44   1.50    0   80    0  55.9  58.1 1021.7 -9.9 -9.999 -99.9 -99.99 -9.99
2019/11/15 22:42 PST    1.56   1.63    1   66    1  56.1  58.1 1021.6 -9.9 -9.999 -99.9 -99.99 -9.99
2019/11/15 22:48 PST    1.68   1.76    0   47    1  56.3  58.1 1021.7 -9.9 -9.999 -99.9 -99.99 -9.99
2019/11/15 22:54 PST    1.81   1.90    1   84    2  56.3  58.1 1021.7 -9.9 -9.999 -99.9 -99.99 -9.99
2019/11/15 23:00 PST    1.93   2.01    3   90    4  55.4  58.1 1021.5 -9.9 -9.999 -99.9 -99.99 -9.99
2019/11/15 23:06 PST    2.05   2.15    3   95    4  55.6  58.1 1021.5 -9.9 -9.999 -99.9 -99.99 -9.99
2019/11/15 23:12 PST    2.17   2.27    3   96    4  55.6  57.9 1021.6 -9.9 -9.999 -99.9 -99.99 -9.99
2019/11/15 23:18 PST    2.30   2.39    4   96    5  55.8  57.9 1021.7 -9.9 -9.999 -99.9 -99.99 -9.99
2019/11/15 23:24 PST    2.42   2.51    4   98    5  55.8  57.9 1021.7 -9.9 -9.999 -99.9 -99.99 -9.99
2019/11/15 23:30 PST    2.54   2.64    4  111    6  55.8  57.9 1021.7 -9.9 -9.999 -99.9 -99.99 -9.99
2019/11/15 23:36 PST    2.66   2.77    5  117    6  55.8  57.9 1021.5 -9.9 -9.999 -99.9 -99.99 -9.99
2019/11/15 23:42 PST    2.78   2.90    4  121    7  55.8  57.7 1021.6 -9.9 -9.999 -99.9 -99.99 -9.99
2019/11/15 23:48 PST    2.90   3.01    3  126    5  55.9  57.7 1021.6 -9.9 -9.999 -99.9 -99.99 -9.99
2019/11/15 23:54 PST    3.02   3.11    5  117    6  55.6  57.7 1021.6 -9.9 -9.999 -99.9 -99.99 -9.99
2019/11/16 00:00 PST    3.14   3.21    4  116    6  55.8  57.7 1021.7 -9.9 -9.999 -99.9 -99.99 -9.99
2019/11/16 00:06 PST    3.25   3.34    4  103    5  55.8  57.7 1021.7 -9.9 -9.999 -99.9 -99.99 -9.99
2019/11/16 00:12 PST    3.37   3.47    4  101    6  55.8  57.7 1021.7 -9.9 -9.999 -99.9 -99.99 -9.99
2019/11/16 00:18 PST    3.48   3.60    3   95    5  55.8  57.7 1021.7 -9.9 -9.999 -99.9 -99.99 -9.99
2019/11/16 00:24 PST    3.58   3.69    2   93    4  55.8  57.7 1021.8 -9.9 -9.999 -99.9 -99.99 -9.99
2019/11/16 00:30 PST    3.69   3.79    2   92    3  55.8  57.7 1021.8 -9.9 -9.999 -99.9 -99.99 -9.99
2019/11/16 00:36 PST    3.79   3.89    2   99    3  55.8  57.7 1021.7 -9.9 -9.999 -99.9 -99.99 -9.99
2019/11/16 00:42 PST    3.90   3.99    2   98    3  55.8  57.7 1021.6 -9.9 -9.999 -99.9 -99.99 -9.99
2019/11/16 00:48 PST    3.99   4.09    2   90    4  55.8  57.7 1021.6 -9.9 -9.999 -99.9 -99.99 -9.99
2019/11/16 00:54 PST    4.09   4.20    3  104    4  55.8  57.7 1021.7 -9.9 -9.999 -99.9 -99.99 -9.99
2019/11/16 01:00 PST    4.18   4.31    4  109    5  55.8  57.7 1021.7 -9.9 -9.999 -99.9 -99.99 -9.99
2019/11/16 01:06 PST    4.27   4.41    4  105    5  55.6  57.6 1021.6 -9.9 -9.999 -99.9 -99.99 -9.99
2019/11/16 01:12 PST    4.36   4.47    4  106    4  55.6  57.6 1021.5 -9.9 -9.999 -99.9 -99.99 -9.99
2019/11/16 01:18 PST    4.44   4.57    4  109    6  55.6  57.6 1021.4 -9.9 -9.999 -99.9 -99.99 -9.99
2019/11/16 01:24 PST    4.52   4.66    4  103    5  55.4  57.6 1021.3 -9.9 -9.999 -99.9 -99.99 -9.99
2019/11/16 01:30 PST    4.60   4.75    3   89    4  55.4  57.6 1021.5 -9.9 -9.999 -99.9 -99.99 -9.99
2019/11/16 01:36 PST    4.67   4.84    3   90    4  55.2  57.6 1021.6 -9.9 -9.999 -99.9 -99.99 -9.99
2019/11/16 01:42 PST    4.74   4.91    1  139    3  55.4  57.6 1021.6 -9.9 -9.999 -99.9 -99.99 -9.99
2019/11/16 01:48 PST    4.81   4.98    2  172    2  55.4  57.6 1021.7 -9.9 -9.999 -99.9 -99.99 -9.99
2019/11/16 01:54 PST    4.87   5.04    3  183    4  55.4  57.6 1021.7 -9.9 -9.999 -99.9 -99.99 -9.99
2019/11/16 02:00 PST    4.93   5.09    2  208    3  55.2  57.6 1021.6 -9.9 -9.999 -99.9 -99.99 -9.99
2019/11/16 02:06 PST    4.98   5.12    3  188    3  55.4  57.6 1021.5 -9.9 -9.999 -99.9 -99.99 -9.99
2019/11/16 02:12 PST    5.03   5.18    3  153    4  55.6  57.6 1021.5 -9.9 -9.999 -99.9 -99.99 -9.99
2019/11/16 02:18 PST    5.07   5.24    3  191    3  55.4  57.6 1021.5 -9.9 -9.999 -99.9 -99.99 -9.99
2019/11/16 02:24 PST    5.11   5.29    2  136    3  55.6  57.4 1021.5 -9.9 -9.999 -99.9 -99.99 -9.99
2019/11/16 02:30 PST    5.15   5.31    3  146    4  55.4  57.4 1021.4 -9.9 -9.999 -99.9 -99.99 -9.99
2019/11/16 02:36 PST    5.18   5.32    3  118    4  55.4  57.4 1021.4 -9.9 -9.999 -99.9 -99.99 -9.99
2019/11/16 02:42 PST    5.20   5.36    2  124    5  55.4  57.4 1021.4 -9.9 -9.999 -99.9 -99.99 -9.99
2019/11/16 02:48 PST    5.22   5.39    2  144    4  55.4  57.4 1021.4 -9.9 -9.999 -99.9 -99.99 -9.99
2019/11/16 02:54 PST    5.23   5.40    2  139    4  55.4  57.4 1021.3 -9.9 -9.999 -99.9 -99.99 -9.99
2019/11/16 03:00 PST    5.24   5.43    2  125    4  55.4  57.4 1021.3 -9.9 -9.999 -99.9 -99.99 -9.99
2019/11/16 03:06 PST    5.25   5.45    2  173    3  55.2  57.4 1021.4 -9.9 -9.999 -99.9 -99.99 -9.99
2019/11/16 03:12 PST    5.25   5.43    2  131    2  55.4  57.4 1021.4 -9.9 -9.999 -99.9 -99.99 -9.99
2019/11/16 03:18 PST    5.24   5.44    2  111    3  55.4  57.4 1021.5 -9.9 -9.999 -99.9 -99.99 -9.99
2019/11/16 03:24 PST    5.23   5.46    2  153    3  55.2  57.4 1021.5 -9.9 -9.999 -99.9 -99.99 -9.99
2019/11/16 03:30 PST    5.21   5.48    3  112    4  55.2  57.4 1021.4 -9.9 -9.999 -99.9 -99.99 -9.99
2019/11/16 03:36 PST    5.19   5.45    2  113    4  55.2  57.6 1021.4 -9.9 -9.999 -99.9 -99.99 -9.99
2019/11/16 03:42 PST    5.16   5.39    3  109    4  55.2  57.6 1021.2 -9.9 -9.999 -99.9 -99.99 -9.99
2019/11/16 03:48 PST    5.13   5.34    4  113    4  55.0  57.6 1021.1 -9.9 -9.999 -99.9 -99.99 -9.99
2019/11/16 03:54 PST    5.10   5.29    2  127    4  55.0  57.6 1021.1 -9.9 -9.999 -99.9 -99.99 -9.99
2019/11/16 04:00 PST    5.06   5.27    3  127    4  55.0  57.6 1021.1 -9.9 -9.999 -99.9 -99.99 -9.99
2019/11/16 04:06 PST    5.01   5.23    3  119    4  55.0  57.6 1021.1 -9.9 -9.999 -99.9 -99.99 -9.99
2019/11/16 04:12 PST    4.96   5.16    3  152    4  55.0  57.6 1021.1 -9.9 -9.999 -99.9 -99.99 -9.99
2019/11/16 04:18 PST    4.91   5.08    3  131    5  55.0  57.6 1021.1 -9.9 -9.999 -99.9 -99.99 -9.99
2019/11/16 04:24 PST    4.85   5.02    3  149    4  55.0  57.6 1021.1 -9.9 -9.999 -99.9 -99.99 -9.99
2019/11/16 04:30 PST    4.79   4.98    3  159    4  55.0  57.6 1021.2 -9.9 -9.999 -99.9 -99.99 -9.99
2019/11/16 04:36 PST    4.73   4.93    3  108    4  55.0  57.6 1021.4 -9.9 -9.999 -99.9 -99.99 -9.99
2019/11/16 04:42 PST    4.67   4.86    3  118    4  54.9  57.6 1021.4 -9.9 -9.999 -99.9 -99.99 -9.99
2019/11/16 04:48 PST    4.60   4.79    2  157    3  55.0  57.6 1021.4 -9.9 -9.999 -99.9 -99.99 -9.99
2019/11/16 04:54 PST    4.54   4.71    3  149    4  55.2  57.6 1021.4 -9.9 -9.999 -99.9 -99.99 -9.99
2019/11/16 05:00 PST    4.47   4.66    1  134    3  55.0  57.6 1021.3 -9.9 -9.999 -99.9 -99.99 -9.99
2019/11/16 05:06 PST    4.40   4.60    2  167    3  55.0  57.6 1021.3 -9.9 -9.999 -99.9 -99.99 -9.99
2019/11/16 05:12 PST    4.33   4.53    2  197    3  55.2  57.6 1021.3 -9.9 -9.999 -99.9 -99.99 -9.99
2019/11/16 05:18 PST    4.26   4.42    3  108    4  55.0  57.6 1021.4 -9.9 -9.999 -99.9 -99.99 -9.99
2019/11/16 05:24 PST    4.19   4.34    4  102    4  54.9  57.6 1021.4 -9.9 -9.999 -99.9 -99.99 -9.99
2019/11/16 05:30 PST    4.12   4.30    2  108    4  55.0  57.6 1021.4 -9.9 -9.999 -99.9 -99.99 -9.99
2019/11/16 05:36 PST    4.05   4.25    2   97    4  55.0  57.6 1021.4 -9.9 -9.999 -99.9 -99.99 -9.99
2019/11/16 05:42 PST    3.98   4.17    2   96    3  54.9  57.6 1021.4 -9.9 -9.999 -99.9 -99.99 -9.99
2019/11/16 05:48 PST    3.91   4.07    2   99    3  55.0  57.6 1021.4 -9.9 -9.999 -99.9 -99.99 -9.99
2019/11/16 05:54 PST    3.85   3.99    1  112    2  55.0  57.6 1021.5 -9.9 -9.999 -99.9 -99.99 -9.99
2019/11/16 06:00 PST    3.79   3.93    2  196    3  55.2  57.6 1021.7 -9.9 -9.999 -99.9 -99.99 -9.99
2019/11/16 06:06 PST    3.73   3.87    2  170    3  55.0  57.6 1021.7 -9.9 -9.999 -99.9 -99.99 -9.99
2019/11/16 06:12 PST    3.67   3.81    2  135    2  54.9  57.6 1021.7 -9.9 -9.999 -99.9 -99.99 -9.99
2019/11/16 06:18 PST    3.62   3.75    2  128    4  55.0  57.6 1021.7 -9.9 -9.999 -99.9 -99.99 -9.99
2019/11/16 06:24 PST    3.56   3.70    3  129    4  54.9  57.6 1021.7 -9.9 -9.999 -99.9 -99.99 -9.99
2019/11/16 06:30 PST    3.51   3.65    4  131    5  54.9  57.6 1021.8 -9.9 -9.999 -99.9 -99.99 -9.99
2019/11/16 06:36 PST    3.47   3.61    2  128    4  54.9  57.6 1021.8 -9.9 -9.999 -99.9 -99.99 -9.99
2019/11/16 06:42 PST    3.43   3.58    3  114    3  55.0  57.6 1021.8 -9.9 -9.999 -99.9 -99.99 -9.99
2019/11/16 06:48 PST    3.39   3.50    3  112    4  54.9  57.6 1021.9 -9.9 -9.999 -99.9 -99.99 -9.99
2019/11/16 06:54 PST    3.35   3.47    2  133    4  54.9  57.6 1021.9 -9.9 -9.999 -99.9 -99.99 -9.99
2019/11/16 07:00 PST    3.32   3.44    1  178    3  54.9  57.6 1021.8 -9.9 -9.999 -99.9 -99.99 -9.99
2019/11/16 07:06 PST    3.30   3.39    2  118    3  54.9  57.6 1021.9 -9.9 -9.999 -99.9 -99.99 -9.99
2019/11/16 07:12 PST    3.27   3.36    3  146    4  54.7  57.6 1021.9 -9.9 -9.999 -99.9 -99.99 -9.99
2019/11/16 07:18 PST    3.25   3.37    3  120    4  54.7  57.6 1021.9 -9.9 -9.999 -99.9 -99.99 -9.99
2019/11/16 07:24 PST    3.23   3.31    3  135    4  54.7  57.6 1021.9 -9.9 -9.999 -99.9 -99.99 -9.99
2019/11/16 07:30 PST    3.22   3.27    3  112    4  54.7  57.6 1021.9 -9.9 -9.999 -99.9 -99.99 -9.99
2019/11/16 07:36 PST    3.21   3.29    1  104    5  54.5  57.6 1022.0 -9.9 -9.999 -99.9 -99.99 -9.99
2019/11/16 07:42 PST    3.21   3.29    3   99    4  54.5  57.6 1022.0 -9.9 -9.999 -99.9 -99.99 -9.99
2019/11/16 07:48 PST    3.21   3.31    2  117    4  54.5  57.6 1021.9 -9.9 -9.999 -99.9 -99.99 -9.99
2019/11/16 07:54 PST    3.21   3.29    3  132    4  54.5  57.6 1021.9 -9.9 -9.999 -99.9 -99.99 -9.99
2019/11/16 08:00 PST    3.22   3.29    2  162    5  54.5  57.6 1022.0 -9.9 -9.999 -99.9 -99.99 -9.99
2019/11/16 08:06 PST    3.23   3.32    3  115    6  54.5  57.6 1022.0 -9.9 -9.999 -99.9 -99.99 -9.99
2019/11/16 08:12 PST    3.24   3.35    3  147    5  54.3  57.6 1022.0 -9.9 -9.999 -99.9 -99.99 -9.99
2019/11/16 08:18 PST    3.26   3.40    3  133    4  54.3  57.6 1022.1 -9.9 -9.999 -99.9 -99.99 -9.99
2019/11/16 08:24 PST    3.29   3.45    3  130    6  54.3  57.6 1022.1 -9.9 -9.999 -99.9 -99.99 -9.99
2019/11/16 08:30 PST    3.31   3.49    3  156    5  54.3  57.6 1022.1 -9.9 -9.999 -99.9 -99.99 -9.99
2019/11/16 08:36 PST    3.34   3.51    3  121    4  54.3  57.6 1022.2 -9.9 -9.999 -99.9 -99.99 -9.99
2019/11/16 08:42 PST    3.38   3.51    3  115    4  54.1  57.6 1022.3 -9.9 -9.999 -99.9 -99.99 -9.99
2019/11/16 08:48 PST    3.42   3.57    1  130    3  54.3  57.6 1022.3 -9.9 -9.999 -99.9 -99.99 -9.99
2019/11/16 08:54 PST    3.46   3.60    1  114    2  54.3  57.6 1022.4 -9.9 -9.999 -99.9 -99.99 -9.99
2019/11/16 09:00 PST    3.50   3.63    1  158    3  54.1  57.6 1022.4 -9.9 -9.999 -99.9 -99.99 -9.99
2019/11/16 09:06 PST    3.55   3.70    2  165    3  54.1  57.6 1022.3 -9.9 -9.999 -99.9 -99.99 -9.99
2019/11/16 09:12 PST    3.61   3.77    1  118    4  54.1  57.6 1022.4 -9.9 -9.999 -99.9 -99.99 -9.99
2019/11/16 09:18 PST    3.66   3.82    3  112    4  54.1  57.6 1022.4 -9.9 -9.999 -99.9 -99.99 -9.99
2019/11/16 09:24 PST    3.72   3.86    0  105    1  54.5  57.4 1022.5 -9.9 -9.999 -99.9 -99.99 -9.99
2019/11/16 09:30 PST    3.79   3.96    1  315    1  54.5  57.4 1022.5 -9.9 -9.999 -99.9 -99.99 -9.99
2019/11/16 09:36 PST    3.86   4.03    1  204    3  54.5  57.4 1022.5 -9.9 -9.999 -99.9 -99.99 -9.99
2019/11/16 09:42 PST    3.93   4.10    1  181    2  54.5  57.4 1022.5 -9.9 -9.999 -99.9 -99.99 -9.99
2019/11/16 09:48 PST    4.00   4.20    1  201    2  54.5  57.4 1022.5 -9.9 -9.999 -99.9 -99.99 -9.99
2019/11/16 09:54 PST    4.08   4.31    2  217    2  54.5  57.4 1022.5 -9.9 -9.999 -99.9 -99.99 -9.99
2019/11/16 10:00 PST    4.16   4.41    1  213    2  54.5  57.4 1022.4 -9.9 -9.999 -99.9 -99.99 -9.99
2019/11/16 10:06 PST    4.24   4.48    2  166    3  54.7  57.4 1022.3 -9.9 -9.999 -99.9 -99.99 -9.99
2019/11/16 10:12 PST    4.33   4.58    2  167    3  54.5  57.4 1022.2 -9.9 -9.999 -99.9 -99.99 -9.99
2019/11/16 10:18 PST    4.41   4.70    2  139    3  54.7  57.4 1022.1 -9.9 -9.999 -99.9 -99.99 -9.99
2019/11/16 10:24 PST    4.50   4.79    2  165    4  54.5  57.4 1022.2 -9.9 -9.999 -99.9 -99.99 -9.99
2019/11/16 10:30 PST    4.59   4.86    2  211    3  54.5  57.4 1022.3 -9.9 -9.999 -99.9 -99.99 -9.99
2019/11/16 10:36 PST    4.69   4.95    3  247    3  54.5  57.4 1022.3 -9.9 -9.999 -99.9 -99.99 -9.99
2019/11/16 10:42 PST    4.78   5.05    3  254    4  54.5  57.4 1022.2 -9.9 -9.999 -99.9 -99.99 -9.99
2019/11/16 10:48 PST    4.87   5.16    3  244    4  54.5  57.4 1022.1 -9.9 -9.999 -99.9 -99.99 -9.99
2019/11/16 10:54 PST    4.97   5.26    3  244    4  54.5  57.4 1021.9 -9.9 -9.999 -99.9 -99.99 -9.99
2019/11/16 11:00 PST    5.06   5.35    3  216    4  54.3  57.4 1021.8 -9.9 -9.999 -99.9 -99.99 -9.99
2019/11/16 11:06 PST    5.16   5.45    3  239    4  54.5  57.4 1021.9 -9.9 -9.999 -99.9 -99.99 -9.99
2019/11/16 11:12 PST    5.25   5.52    4  252    4  54.7  57.4 1021.9 -9.9 -9.999 -99.9 -99.99 -9.99
2019/11/16 11:18 PST    5.34   5.59    4  254    4  54.5  57.4 1021.7 -9.9 -9.999 -99.9 -99.99 -9.99
2019/11/16 11:24 PST    5.43   5.67    3  237    4  54.5  57.4 1021.4 -9.9 -9.999 -99.9 -99.99 -9.99
2019/11/16 11:30 PST    5.52   5.76    3  229    4  54.7  57.6 1021.4 -9.9 -9.999 -99.9 -99.99 -9.99
2019/11/16 11:36 PST    5.61   5.88    2  260    4  54.5  57.6 1021.2 -9.9 -9.999 -99.9 -99.99 -9.99
2019/11/16 11:42 PST    5.70   5.97    3  258    4  54.3  57.6 1021.1 -9.9 -9.999 -99.9 -99.99 -9.99
2019/11/16 11:48 PST    5.78   6.03    3  284    4  54.3  57.6 1021.1 -9.9 -9.999 -99.9 -99.99 -9.99
2019/11/16 11:54 PST    5.86   6.09    4  279    5  54.3  57.6 1021.0 -9.9 -9.999 -99.9 -99.99 -9.99
2019/11/16 12:00 PST    5.94   6.18    3  260    5  54.1  57.6 1020.9 -9.9 -9.999 -99.9 -99.99 -9.99
2019/11/16 12:06 PST    6.02   6.26    3  241    4  54.1  57.6 1020.8 -9.9 -9.999 -99.9 -99.99 -9.99
2019/11/16 12:12 PST    6.09   6.35    3  233    4  54.5  57.6 1020.7 -9.9 -9.999 -99.9 -99.99 -9.99
2019/11/16 12:18 PST    6.15   6.44    4  233    4  54.3  57.6 1020.6 -9.9 -9.999 -99.9 -99.99 -9.99
2019/11/16 12:24 PST    6.22   6.48    3  247    5  54.5  57.6 1020.6 -9.9 -9.999 -99.9 -99.99 -9.99
2019/11/16 12:30 PST    6.27   6.50    4  276    5  54.3  57.6 1020.4 -9.9 -9.999 -99.9 -99.99 -9.99
2019/11/16 12:36 PST    6.33   6.56    3  284    4  54.0  57.6 1020.4 -9.9 -9.999 -99.9 -99.99 -9.99
2019/11/16 12:42 PST    6.38   6.65    3  277    5  54.0  57.6 1020.4 -9.9 -9.999 -99.9 -99.99 -9.99
2019/11/16 12:48 PST    6.42   6.68    2  267    4  54.1  57.6 1020.2 -9.9 -9.999 -99.9 -99.99 -9.99
2019/11/16 12:54 PST    6.46   6.70    2  219    2  54.3  57.6 1020.0 -9.9 -9.999 -99.9 -99.99 -9.99
2019/11/16 13:00 PST    6.49   6.75    1  203    2  54.3  57.6 1019.9 -9.9 -9.999 -99.9 -99.99 -9.99
2019/11/16 13:06 PST    6.52   6.79    2  215    2  54.3  57.6 1019.7 -9.9 -9.999 -99.9 -99.99 -9.99
2019/11/16 13:12 PST    6.55   6.76    1  227    2  54.5  57.6 1019.7 -9.9 -9.999 -99.9 -99.99 -9.99
2019/11/16 13:18 PST    6.56   6.76    2  256    2  54.5  57.6 1019.7 -9.9 -9.999 -99.9 -99.99 -9.99
2019/11/16 13:24 PST    6.57   6.77    3  265    4  55.0  57.6 1019.7 -9.9 -9.999 -99.9 -99.99 -9.99
2019/11/16 13:30 PST    6.58   6.80    4  280    4  55.2  57.6 1019.5 -9.9 -9.999 -99.9 -99.99 -9.99
2019/11/16 13:36 PST    6.58   6.82    3  282    4  55.6  57.6 1019.3 -9.9 -9.999 -99.9 -99.99 -9.99
2019/11/16 13:42 PST    6.57   6.84    2  286    3  56.3  57.6 1019.2 -9.9 -9.999 -99.9 -99.99 -9.99
2019/11/16 13:48 PST    6.56   6.81    2  307    2  57.2  57.6 1019.2 -9.9 -9.999 -99.9 -99.99 -9.99
2019/11/16 13:54 PST    6.54   6.77    1  343    2  57.7  57.6 1019.2 -9.9 -9.999 -99.9 -99.99 -9.99
2019/11/16 14:00 PST    6.52   6.72    1  261    1  58.3  57.6 1019.2 -9.9 -9.999 -99.9 -99.99 -9.99
2019/11/16 14:06 PST    6.49   6.70    2  262    2  57.9  57.6 1019.1 -9.9 -9.999 -99.9 -99.99 -9.99
2019/11/16 14:12 PST    6.45   6.67    2  275    2  58.6  57.6 1019.1 -9.9 -9.999 -99.9 -99.99 -9.99
2019/11/16 14:18 PST    6.41   6.62    1  256    2  59.0  57.6 1019.1 -9.9 -9.999 -99.9 -99.99 -9.99
2019/11/16 14:24 PST    6.36   6.57    1  331    2  59.5  57.6 1019.0 -9.9 -9.999 -99.9 -99.99 -9.99
2019/11/16 14:30 PST    6.31   6.51    2  341    2  59.9  57.6 1019.0 -9.9 -9.999 -99.9 -99.99 -9.99
2019/11/16 14:36 PST    6.25   6.41    2  342    3  60.4  57.6 1018.9 -9.9 -9.999 -99.9 -99.99 -9.99
2019/11/16 14:42 PST    6.18   6.31    2  330    3  61.2  57.6 1019.0 -9.9 -9.999 -99.9 -99.99 -9.99
2019/11/16 14:48 PST    6.10   6.18    2  331    3  62.2  57.6 1019.0 -9.9 -9.999 -99.9 -99.99 -9.99
2019/11/16 14:54 PST    6.02   6.10    3  343    4  63.5  57.6 1018.9 -9.9 -9.999 -99.9 -99.99 -9.99
2019/11/16 15:00 PST    5.94   5.99    2  290    4  64.8  57.6 1018.8 -9.9 -9.999 -99.9 -99.99 -9.99
2019/11/16 15:06 PST    5.84   5.84    2  269    4  65.1  57.6 1018.8 -9.9 -9.999 -99.9 -99.99 -9.99
2019/11/16 15:12 PST    5.75   5.71    3  305    4  64.2  57.6 1018.8 -9.9 -9.999 -99.9 -99.99 -9.99
2019/11/16 15:18 PST    5.64   5.58    3  311    4  64.6  57.6 1018.8 -9.9 -9.999 -99.9 -99.99 -9.99
2019/11/16 15:24 PST    5.53   5.50    4  283    5  64.0  57.6 1018.8 -9.9 -9.999 -99.9 -99.99 -9.99
2019/11/16 15:30 PST    5.41   5.37    5  285    7  63.1  57.6 1018.9 -9.9 -9.999 -99.9 -99.99 -9.99
2019/11/16 15:36 PST    5.29   5.24    4  291    6  63.0  57.6 1018.9 -9.9 -9.999 -99.9 -99.99 -9.99
2019/11/16 15:42 PST    5.16   5.12    3  296    5  63.0  57.6 1018.9 -9.9 -9.999 -99.9 -99.99 -9.99
2019/11/16 15:48 PST    5.03   4.96    4  297    5  62.8  57.6 1019.0 -9.9 -9.999 -99.9 -99.99 -9.99
2019/11/16 15:54 PST    4.89   4.78    3  302    6  62.8  57.6 1018.9 -9.9 -9.999 -99.9 -99.99 -9.99
2019/11/16 16:00 PST    4.75   4.63    5  284    6  61.7  57.6 1019.0 -9.9 -9.999 -99.9 -99.99 -9.99
2019/11/16 16:06 PST    4.60   4.52    5  286    7  60.8  57.6 1019.1 -9.9 -9.999 -99.9 -99.99 -9.99
2019/11/16 16:12 PST    4.45   4.41    5  284    7  60.3  57.6 1019.0 -9.9 -9.999 -99.9 -99.99 -9.99
2019/11/16 16:18 PST    4.30   4.26    4  282    6  60.3  57.6 1019.0 -9.9 -9.999 -99.9 -99.99 -9.99
2019/11/16 16:24 PST    4.14   4.09    5  286    6  60.1  57.6 1019.0 -9.9 -9.999 -99.9 -99.99 -9.99
2019/11/16 16:30 PST    3.98   3.93    6  284    8  59.7  57.6 1019.0 -9.9 -9.999 -99.9 -99.99 -9.99
2019/11/16 16:36 PST    3.82   3.75    6  283    7  59.2  57.6 1019.0 -9.9 -9.999 -99.9 -99.99 -9.99
2019/11/16 16:42 PST    3.65   3.58    3  291    5  59.5  57.6 1019.0 -9.9 -9.999 -99.9 -99.99 -9.99
2019/11/16 16:48 PST    3.48   3.42    5  286    6  59.5  57.6 1019.0 -9.9 -9.999 -99.9 -99.99 -9.99
2019/11/16 16:54 PST    3.31   3.25    2  298    5  59.7  57.7 1019.0 -9.9 -9.999 -99.9 -99.99 -9.99
2019/11/16 17:00 PST    3.14   3.12    3  286    4  59.7  57.7 1019.2 -9.9 -9.999 -99.9 -99.99 -9.99
2019/11/16 17:06 PST    2.97   2.96    3  300    4  59.7  57.7 1019.3 -9.9 -9.999 -99.9 -99.99 -9.99
2019/11/16 17:12 PST    2.81   2.80    2  299    3  59.7  57.7 1019.2 -9.9 -9.999 -99.9 -99.99 -9.99
2019/11/16 17:18 PST    2.64   2.66    2  300    4  59.5  57.7 1019.2 -9.9 -9.999 -99.9 -99.99 -9.99
2019/11/16 17:24 PST    2.47   2.52    3  289    3  59.4  57.7 1019.3 -9.9 -9.999 -99.9 -99.99 -9.99
2019/11/16 17:30 PST    2.30   2.38    2  335    3  59.5  57.7 1019.4 -9.9 -9.999 -99.9 -99.99 -9.99
2019/11/16 17:36 PST    2.14   2.25    3  328    4  59.5  57.7 1019.3 -9.9 -9.999 -99.9 -99.99 -9.99
2019/11/16 17:42 PST    1.98   2.10    1   17    4  59.5  57.7 1019.3 -9.9 -9.999 -99.9 -99.99 -9.99
2019/11/16 17:48 PST    1.82   1.98    2   21    3  59.5  57.7 1019.4 -9.9 -9.999 -99.9 -99.99 -9.99
2019/11/16 17:54 PST    1.66   1.88    3  350    4  59.5  57.7 1019.4 -9.9 -9.999 -99.9 -99.99 -9.99
2019/11/16 18:00 PST    1.51   1.77    3  346    3  59.5  57.7 1019.4 -9.9 -9.999 -99.9 -99.99 -9.99
2019/11/16 18:06 PST    1.36   1.65    3  343    4  59.5  57.9 1019.5 -9.9 -9.999 -99.9 -99.99 -9.99
2019/11/16 18:12 PST    1.22   1.51    3  333    4  59.5  57.9 1019.6 -9.9 -9.999 -99.9 -99.99 -9.99
2019/11/16 18:18 PST    1.08   1.37    3  337    4  59.5  57.9 1019.6 -9.9 -9.999 -99.9 -99.99 -9.99
2019/11/16 18:24 PST    0.95   1.25    3  347    4  59.5  57.9 1019.4 -9.9 -9.999 -99.9 -99.99 -9.99
2019/11/16 18:30 PST    0.82   1.14    3   21    4  58.8  57.9 1019.4 -9.9 -9.999 -99.9 -99.99 -9.99
2019/11/16 18:36 PST    0.69   1.04    4   18    6  58.5  57.9 1019.5 -9.9 -9.999 -99.9 -99.99 -9.99
2019/11/16 18:42 PST    0.58   0.94    4   11    5  58.3  57.9 1019.5 -9.9 -9.999 -99.9 -99.99 -9.99
2019/11/16 18:48 PST    0.47   0.88    4    8    7  58.3  57.9 1019.5 -9.9 -9.999 -99.9 -99.99 -9.99
2019/11/16 18:54 PST    0.36   0.75    3    9    6  58.1  58.1 1019.5 -9.9 -9.999 -99.9 -99.99 -9.99
2019/11/16 19:00 PST    0.26   0.62    2   25    3  57.9  58.1 1019.5 -9.9 -9.999 -99.9 -99.99 -9.99
2019/11/16 19:06 PST    0.17   0.52    3   10    4  57.9  58.1 1019.5 -9.9 -9.999 -99.9 -99.99 -9.99
2019/11/16 19:12 PST    0.08   0.44    3    3    4  57.9  58.1 1019.5 -9.9 -9.999 -99.9 -99.99 -9.99
2019/11/16 19:18 PST    0.00   0.37    4  351    4  57.7  58.1 1019.5 -9.9 -9.999 -99.9 -99.99 -9.99
2019/11/16 19:24 PST   -0.07   0.30    3  347    5  57.9  58.1 1019.6 -9.9 -9.999 -99.9 -99.99 -9.99
2019/11/16 19:30 PST   -0.14   0.24    3  348    6  57.9  58.1 1019.6 -9.9 -9.999 -99.9 -99.99 -9.99
2019/11/16 19:36 PST   -0.20   0.14    3   13    5  57.7  58.1 1019.6 -9.9 -9.999 -99.9 -99.99 -9.99
2019/11/16 19:42 PST   -0.25   0.04    2   15    4  57.6  58.1 1019.6 -9.9 -9.999 -99.9 -99.99 -9.99
2019/11/16 19:48 PST   -0.30  -0.00    4   21    5  57.4  58.1 1019.6 -9.9 -9.999 -99.9 -99.99 -9.99
2019/11/16 19:54 PST   -0.35  -0.05    2   18    5  57.2  58.1 1019.6 -9.9 -9.999 -99.9 -99.99 -9.99
2019/11/16 20:00 PST   -0.38  -0.10    2   27    4  57.2  58.1 1019.6 -9.9 -9.999 -99.9 -99.99 -9.99
2019/11/16 20:06 PST   -0.41  -0.15    2   16    4  57.0  58.1 1019.7 -9.9 -9.999 -99.9 -99.99 -9.99
2019/11/16 20:12 PST   -0.44  -0.17    4  356    5  57.0  58.1 1019.7 -9.9 -9.999 -99.9 -99.99 -9.99
2019/11/16 20:18 PST   -0.45  -0.24    2   12    4  57.0  58.1 1019.7 -9.9 -9.999 -99.9 -99.99 -9.99
2019/11/16 20:24 PST   -0.47  -0.29    2   23    4  56.8  58.1 1019.7 -9.9 -9.999 -99.9 -99.99 -9.99
2019/11/16 20:30 PST   -0.47  -0.29    2   31    4  56.7  58.1 1019.7 -9.9 -9.999 -99.9 -99.99 -9.99
2019/11/16 20:36 PST   -0.47  -0.29    1   33    2  56.7  58.1 1019.7 -9.9 -9.999 -99.9 -99.99 -9.99
2019/11/16 20:42 PST   -0.47  -0.33    2  356    2  56.5  58.1 1019.7 -9.9 -9.999 -99.9 -99.99 -9.99
2019/11/16 20:48 PST   -0.46  -0.34    1  350    2  56.5  58.1 1019.8 -9.9 -9.999 -99.9 -99.99 -9.99
2019/11/16 20:54 PST   -0.45  -0.34    2  350    3  56.5  58.1 1019.8 -9.9 -9.999 -99.9 -99.99 -9.99
2019/11/16 21:00 PST   -0.42  -0.33    2   15    3  56.5  58.1 1019.8 -9.9 -9.999 -99.9 -99.99 -9.99
2019/11/16 21:06 PST   -0.40  -0.30    1   43    4  56.3  58.1 1019.8 -9.9 -9.999 -99.9 -99.99 -9.99
2019/11/16 21:12 PST   -0.37  -0.29    1   44    3  56.1  58.1 1019.8 -9.9 -9.999 -99.9 -99.99 -9.99
2019/11/16 21:18 PST   -0.33  -0.26    1   46    2  56.1  58.1 1019.8 -9.9 -9.999 -99.9 -99.99 -9.99
2019/11/16 21:24 PST   -0.29  -0.22    0   50    1  56.1  58.1 1019.9 -9.9 -9.999 -99.9 -99.99 -9.99
2019/11/16 21:30 PST   -0.24  -0.20    3  349    3  55.9  58.1 1019.9 -9.9 -9.999 -99.9 -99.99 -9.99
2019/11/16 21:36 PST   -0.19  -0.17    3  345    4  56.1  58.1 1020.0 -9.9 -9.999 -99.9 -99.99 -9.99
2019/11/16 21:42 PST   -0.14  -0.12    2  360    4  56.1  58.1 1020.1 -9.9 -9.999 -99.9 -99.99 -9.99
2019/11/16 21:48 PST   -0.08  -0.05    2  337    3  56.1  58.1 1020.1 -9.9 -9.999 -99.9 -99.99 -9.99
2019/11/16 21:54 PST   -0.01   0.03    2  354    3  55.9  58.1 1020.1 -9.9 -9.999 -99.9 -99.99 -9.99
2019/11/16 22:00 PST    0.06   0.10    2   11    3  55.9  58.1 1020.2 -9.9 -9.999 -99.9 -99.99 -9.99
2019/11/16 22:06 PST    0.13   0.16    3  358    3  55.8  57.9 1020.2 -9.9 -9.999 -99.9 -99.99 -9.99
2019/11/16 22:12 PST    0.21   0.23    2  360    4  55.8  57.9 1020.2 -9.9 -9.999 -99.9 -99.99 -9.99
2019/11/16 22:18 PST    0.29   0.30    1   18    2  55.6  57.9 1020.2 -9.9 -9.999 -99.9 -99.99 -9.99
2019/11/16 22:24 PST    0.38   0.40    1   10    2  55.6  57.9 1020.2 -9.9 -9.999 -99.9 -99.99 -9.99
2019/11/16 22:30 PST    0.47   0.51    2  346    3  55.6  57.9 1020.1 -9.9 -9.999 -99.9 -99.99 -9.99
2019/11/16 22:36 PST    0.56   0.62    3  350    3  55.4  57.9 1020.1 -9.9 -9.999 -99.9 -99.99 -9.99
2019/11/16 22:42 PST    0.66   0.72    2    4    4  55.4  57.9 1020.1 -9.9 -9.999 -99.9 -99.99 -9.99
2019/11/16 22:48 PST    0.76   0.83    2   21    2  55.2  57.9 1020.0 -9.9 -9.999 -99.9 -99.99 -9.99
2019/11/16 22:54 PST    0.86   0.96    2    9    3  55.0  57.9 1020.0 -9.9 -9.999 -99.9 -99.99 -9.99
2019/11/16 23:00 PST    0.96   1.08    3  345    3  55.0  57.9 1020.0 -9.9 -9.999 -99.9 -99.99 -9.99
2019/11/16 23:06 PST    1.07   1.19    3  357    4  55.2  57.9 1020.0 -9.9 -9.999 -99.9 -99.99 -9.99
2019/11/16 23:12 PST    1.18   1.30    2    1    3  55.0  57.9 1019.9 -9.9 -9.999 -99.9 -99.99 -9.99
2019/11/16 23:18 PST    1.29   1.40    1   10    3  55.2  57.9 1019.9 -9.9 -9.999 -99.9 -99.99 -9.99
2019/11/16 23:24 PST    1.41   1.52    1   26    2  54.9  57.9 1019.9 -9.9 -9.999 -99.9 -99.99 -9.99
2019/11/16 23:30 PST    1.52   1.65    3    4    4  54.7  57.9 1019.9 -9.9 -9.999 -99.9 -99.99 -9.99
2019/11/16 23:36 PST    1.64   1.81    2   22    4  54.7  57.9 1019.9 -9.9 -9.999 -99.9 -99.99 -9.99
2019/11/16 23:42 PST    1.76   1.94    2    5    3  54.5  57.9 1019.9 -9.9 -9.999 -99.9 -99.99 -9.99
2019/11/16 23:48 PST    1.87   2.05    3  355    3  54.5  57.9 1019.8 -9.9 -9.999 -99.9 -99.99 -9.99
2019/11/16 23:54 PST    1.99   2.16    3  350    4  54.5  57.9 1019.9 -9.9 -9.999 -99.9 -99.99 -9.99
2019/11/17 00:00 PST    2.11   2.26    3    7    3  54.3  57.9 1019.9 -9.9 -9.999 -99.9 -99.99 -9.99
2019/11/17 00:06 PST    2.23   2.39    2   19    3  54.3  57.7 1019.8 -9.9 -9.999 -99.9 -99.99 -9.99
2019/11/17 00:12 PST    2.35   2.54    2    0    3  54.3  57.7 1019.8 -9.9 -9.999 -99.9 -99.99 -9.99
2019/11/17 00:18 PST    2.47   2.66    2  356    3  54.3  57.7 1019.8 -9.9 -9.999 -99.9 -99.99 -9.99
2019/11/17 00:24 PST    2.59   2.76    2   12    3  54.3  57.7 1019.7 -9.9 -9.999 -99.9 -99.99 -9.99
2019/11/17 00:30 PST    2.70   2.87    3    0    3  54.5  57.7 1019.7 -9.9 -9.999 -99.9 -99.99 -9.99
2019/11/17 00:36 PST    2.82   2.98    2    6    3  54.5  57.7 1019.7 -9.9 -9.999 -99.9 -99.99 -9.99
2019/11/17 00:42 PST    2.93   3.11    2    4    4  54.3  57.7 1019.7 -9.9 -9.999 -99.9 -99.99 -9.99
2019/11/17 00:48 PST    3.05   3.24    2  356    3  54.3  57.7 1019.7 -9.9 -9.999 -99.9 -99.99 -9.99
2019/11/17 00:54 PST    3.16   3.35    3  356    4  54.3  57.7 1019.7 -9.9 -9.999 -99.9 -99.99 -9.99
2019/11/17 01:00 PST    3.27   3.47    2   15    4  54.1  57.6 1019.7 -9.9 -9.999 -99.9 -99.99 -9.99
2019/11/17 01:06 PST    3.38   3.59    3    5    4  54.1  57.6 1019.7 -9.9 -9.999 -99.9 -99.99 -9.99
2019/11/17 01:12 PST    3.49   3.70    3  338    4  54.3  57.6 1019.8 -9.9 -9.999 -99.9 -99.99 -9.99
2019/11/17 01:18 PST    3.59   3.81    2   14    4  54.3  57.6 1019.8 -9.9 -9.999 -99.9 -99.99 -9.99
2019/11/17 01:24 PST    3.69   3.94    2   15    4  54.1  57.6 1019.8 -9.9 -9.999 -99.9 -99.99 -9.99
2019/11/17 01:30 PST    3.79   4.04    4  350    4  54.0  57.6 1019.7 -9.9 -9.999 -99.9 -99.99 -9.99
2019/11/17 01:36 PST    3.89   4.13    4  337    5  54.3  57.6 1019.8 -9.9 -9.999 -99.9 -99.99 -9.99
2019/11/17 01:42 PST    3.99   4.21    5  357    6  54.3  57.6 1019.8 -9.9 -9.999 -99.9 -99.99 -9.99
2019/11/17 01:48 PST    4.08   4.30    3   10    5  54.1  57.4 1019.8 -9.9 -9.999 -99.9 -99.99 -9.99
2019/11/17 01:54 PST    4.17   4.39    3   11    5  54.0  57.4 1019.8 -9.9 -9.999 -99.9 -99.99 -9.99
2019/11/17 02:00 PST    4.26   4.46    3   16    5  54.0  57.4 1019.8 -9.9 -9.999 -99.9 -99.99 -9.99
2019/11/17 02:06 PST    4.34   4.55    2   18    4  53.8  57.4 1019.8 -9.9 -9.999 -99.9 -99.99 -9.99
2019/11/17 02:12 PST    4.42   4.64    3   18    4  53.8  57.4 1019.8 -9.9 -9.999 -99.9 -99.99 -9.99
2019/11/17 02:18 PST    4.50   4.72    2   14    4  54.0  57.4 1019.7 -9.9 -9.999 -99.9 -99.99 -9.99
2019/11/17 02:24 PST    4.57   4.77    3  351    4  54.1  57.4 1019.8 -9.9 -9.999 -99.9 -99.99 -9.99
2019/11/17 02:30 PST    4.65   4.85    3  345    4  54.1  57.4 1019.8 -9.9 -9.999 -99.9 -99.99 -9.99
2019/11/17 02:36 PST    4.71   4.92    4  352    5  54.1  57.4 1019.7 -9.9 -9.999 -99.9 -99.99 -9.99
2019/11/17 02:42 PST    4.78   5.00    2  350    4  54.1  57.4 1019.7 -9.9 -9.999 -99.9 -99.99 -9.99
2019/11/17 02:48 PST    4.84   5.09    2    7    3  54.1  57.4 1019.7 -9.9 -9.999 -99.9 -99.99 -9.99
2019/11/17 02:54 PST    4.90   5.16    2    3    3  54.3  57.4 1019.6 -9.9 -9.999 -99.9 -99.99 -9.99
2019/11/17 03:00 PST    4.95   5.20    2  326    3  54.3  57.4 1019.6 -9.9 -9.999 -99.9 -99.99 -9.99
2019/11/17 03:06 PST    5.00   5.24    2  324    3  54.3  57.4 1019.5 -9.9 -9.999 -99.9 -99.99 -9.99
2019/11/17 03:12 PST    5.04   5.28    2  338    4  54.5  57.4 1019.6 -9.9 -9.999 -99.9 -99.99 -9.99
2019/11/17 03:18 PST    5.08   5.34    2  351    4  54.3  57.4 1019.5 -9.9 -9.999 -99.9 -99.99 -9.99
2019/11/17 03:24 PST    5.12   5.40    3  337    4  54.5  57.4 1019.7 -9.9 -9.999 -99.9 -99.99 -9.99
2019/11/17 03:30 PST    5.15   5.43    4  342    5  54.3  57.4 1019.6 -9.9 -9.999 -99.9 -99.99 -9.99
2019/11/17 03:36 PST    5.17   5.45    3  315    4  54.5  57.4 1019.5 -9.9 -9.999 -99.9 -99.99 -9.99
2019/11/17 03:42 PST    5.20   5.46    2  338    4  54.5  57.4 1019.5 -9.9 -9.999 -99.9 -99.99 -9.99
2019/11/17 03:48 PST    5.21   5.46    2  320    4  54.9  57.4 1019.5 -9.9 -9.999 -99.9 -99.99 -9.99
2019/11/17 03:54 PST    5.22   5.46    4  356    5  54.7  57.4 1019.4 -9.9 -9.999 -99.9 -99.99 -9.99
2019/11/17 04:00 PST    5.23   5.48    2    8    4  54.7  57.4 1019.5 -9.9 -9.999 -99.9 -99.99 -9.99
2019/11/17 04:06 PST    5.23   5.51    1   45    3  54.1  57.4 1019.5 -9.9 -9.999 -99.9 -99.99 -9.99
2019/11/17 04:12 PST    5.23   5.49    2   17    4  54.0  57.4 1019.5 -9.9 -9.999 -99.9 -99.99 -9.99
2019/11/17 04:18 PST    5.22   5.46    2   23    3  54.0  57.4 1019.4 -9.9 -9.999 -99.9 -99.99 -9.99
2019/11/17 04:24 PST    5.20   5.44    1   49    3  54.0  57.4 1019.4 -9.9 -9.999 -99.9 -99.99 -9.99
2019/11/17 04:30 PST    5.18   5.42    1   60    3  53.4  57.4 1019.5 -9.9 -9.999 -99.9 -99.99 -9.99
2019/11/17 04:36 PST    5.16   5.41    1  116    1  53.2  57.4 1019.5 -9.9 -9.999 -99.9 -99.99 -9.99
2019/11/17 04:42 PST    5.13   5.40    1  101    2  53.1  57.4 1019.5 -9.9 -9.999 -99.9 -99.99 -9.99
2019/11/17 04:48 PST    5.10   5.34    1   48    3  53.2  57.4 1019.5 -9.9 -9.999 -99.9 -99.99 -9.99
2019/11/17 04:54 PST    5.06   5.33    1   37    3  53.4  57.4 1019.6 -9.9 -9.999 -99.9 -99.99 -9.99
2019/11/17 05:00 PST    5.02   5.28    1   82    3  53.4  57.4 1019.6 -9.9 -9.999 -99.9 -99.99 -9.99
2019/11/17 05:06 PST    4.98   5.25    1   99    2  53.1  57.4 1019.7 -9.9 -9.999 -99.9 -99.99 -9.99
2019/11/17 05:12 PST    4.93   5.23    1   82    2  52.9  57.4 1019.7 -9.9 -9.999 -99.9 -99.99 -9.99
2019/11/17 05:18 PST    4.88   5.19    1   95    1  52.9  57.4 1019.8 -9.9 -9.999 -99.9 -99.99 -9.99
2019/11/17 05:24 PST    4.83   5.11    1   95    1  52.9  57.4 1019.9 -9.9 -9.999 -99.9 -99.99 -9.99
2019/11/17 05:30 PST    4.77   5.06    1   78    2  53.1  57.4 1020.0 -9.9 -9.999 -99.9 -99.99 -9.99
2019/11/17 05:36 PST    4.71   5.00    1   85    1  52.5  57.4 1020.0 -9.9 -9.999 -99.9 -99.99 -9.99
2019/11/17 05:42 PST    4.65   4.92    2   99    2  52.7  57.4 1020.1 -9.9 -9.999 -99.9 -99.99 -9.99
2019/11/17 05:48 PST    4.59   4.85    2   97    2  52.7  57.4 1020.1 -9.9 -9.999 -99.9 -99.99 -9.99
2019/11/17 05:54 PST    4.53   4.78    1   89    2  52.9  57.4 1020.0 -9.9 -9.999 -99.9 -99.99 -9.99
2019/11/17 06:00 PST    4.46   4.70    1  116    2  52.7  57.4 1020.0 -9.9 -9.999 -99.9 -99.99 -9.99
2019/11/17 06:06 PST    4.40   4.61    1   96    2  52.9  57.4 1019.9 -9.9 -9.999 -99.9 -99.99 -9.99
2019/11/17 06:12 PST    4.33   4.57    1  112    2  53.1  57.4 1020.0 -9.9 -9.999 -99.9 -99.99 -9.99
2019/11/17 06:18 PST    4.27   4.50    2   83    2  53.2  57.4 1020.0 -9.9 -9.999 -99.9 -99.99 -9.99
2019/11/17 06:24 PST    4.20   4.41    1  101    2  53.6  57.4 1020.0 -9.9 -9.999 -99.9 -99.99 -9.99
2019/11/17 06:30 PST    4.14   4.33    0   99    1  53.6  57.4 1020.0 -9.9 -9.999 -99.9 -99.99 -9.99
2019/11/17 06:36 PST    4.08   4.29    0  309    1  53.6  57.4 1020.0 -9.9 -9.999 -99.9 -99.99 -9.99
2019/11/17 06:42 PST    4.02   4.24    1  342    2  53.8  57.4 1020.0 -9.9 -9.999 -99.9 -99.99 -9.99
2019/11/17 06:48 PST    3.96   4.17    1   80    2  54.0  57.4 1020.0 -9.9 -9.999 -99.9 -99.99 -9.99
2019/11/17 06:54 PST    3.90   4.12    0   70    1  53.8  57.4 1020.1 -9.9 -9.999 -99.9 -99.99 -9.99
2019/11/17 07:00 PST    3.84   4.07    1   83    1  53.6  57.4 1020.1 -9.9 -9.999 -99.9 -99.99 -9.99
2019/11/17 07:06 PST    3.79   4.01    0   74    1  54.0  57.4 1020.2 -9.9 -9.999 -99.9 -99.99 -9.99
2019/11/17 07:12 PST    3.74   3.94    1   19    1  54.0  57.4 1020.3 -9.9 -9.999 -99.9 -99.99 -9.99
2019/11/17 07:18 PST    3.69   3.89    0  108    1  54.0  57.6 1020.4 -9.9 -9.999 -99.9 -99.99 -9.99
2019/11/17 07:24 PST    3.64   3.84    1   90    2  53.8  57.4 1020.4 -9.9 -9.999 -99.9 -99.99 -9.99
2019/11/17 07:30 PST    3.60   3.77    0  113    2  52.9  57.4 1020.4 -9.9 -9.999 -99.9 -99.99 -9.99
2019/11/17 07:36 PST    3.56   3.72    0   22    1  52.9  57.4 1020.4 -9.9 -9.999 -99.9 -99.99 -9.99
2019/11/17 07:42 PST    3.52   3.71    1   66    2  53.2  57.4 1020.4 -9.9 -9.999 -99.9 -99.99 -9.99
2019/11/17 07:48 PST    3.49   3.72    1    2    1  53.2  57.4 1020.4 -9.9 -9.999 -99.9 -99.99 -9.99
2019/11/17 07:54 PST    3.46   3.68    1  343    1  53.2  57.4 1020.4 -9.9 -9.999 -99.9 -99.99 -9.99
2019/11/17 08:00 PST    3.43   3.60    1  346    2  53.4  57.4 1020.4 -9.9 -9.999 -99.9 -99.99 -9.99
2019/11/17 08:06 PST    3.41   3.57    1  353    2  53.8  57.4 1020.5 -9.9 -9.999 -99.9 -99.99 -9.99
2019/11/17 08:12 PST    3.39   3.56    2  270    2  53.8  57.4 1020.6 -9.9 -9.999 -99.9 -99.99 -9.99
2019/11/17 08:18 PST    3.37   3.53    2  296    3  54.1  57.4 1020.7 -9.9 -9.999 -99.9 -99.99 -9.99
2019/11/17 08:24 PST    3.36   3.51    2  313    4  54.5  57.4 1020.8 -9.9 -9.999 -99.9 -99.99 -9.99
2019/11/17 08:30 PST    3.35   3.53    2  332    4  54.7  57.4 1020.7 -9.9 -9.999 -99.9 -99.99 -9.99
2019/11/17 08:36 PST    3.34   3.56    3  356    5  54.9  57.4 1020.8 -9.9 -9.999 -99.9 -99.99 -9.99
2019/11/17 08:42 PST    3.34   3.54    3  339    5  54.9  57.4 1020.8 -9.9 -9.999 -99.9 -99.99 -9.99
2019/11/17 08:48 PST    3.34   3.48    1  243    2  55.2  57.4 1020.8 -9.9 -9.999 -99.9 -99.99 -9.99
2019/11/17 08:54 PST    3.34   3.47    3  285    4  55.2  57.4 1020.8 -9.9 -9.999 -99.9 -99.99 -9.99
2019/11/17 09:00 PST    3.35   3.51    3  303    4  55.9  57.4 1020.8 -9.9 -9.999 -99.9 -99.99 -9.99
2019/11/17 09:06 PST    3.36   3.54    3  283    4  56.3  57.4 1020.8 -9.9 -9.999 -99.9 -99.99 -9.99
2019/11/17 09:12 PST    3.37   3.56    4  280    5  56.5  57.4 1020.9 -9.9 -9.999 -99.9 -99.99 -9.99
2019/11/17 09:18 PST    3.39   3.59    2  301    4  57.0  57.4 1020.9 -9.9 -9.999 -99.9 -99.99 -9.99
2019/11/17 09:24 PST    3.41   3.58    1  315    4  57.6  57.4 1020.9 -9.9 -9.999 -99.9 -99.99 -9.99
2019/11/17 09:30 PST    3.43   3.58    2  328    3  57.6  57.4 1020.9 -9.9 -9.999 -99.9 -99.99 -9.99
2019/11/17 09:36 PST    3.46   3.60    4  332    5  57.7  57.4 1020.9 -9.9 -9.999 -99.9 -99.99 -9.99
2019/11/17 09:42 PST    3.49   3.67    3  337    5  57.9  57.4 1020.9 -9.9 -9.999 -99.9 -99.99 -9.99
2019/11/17 09:48 PST    3.53   3.76    2  319    4  58.3  57.4 1020.9 -9.9 -9.999 -99.9 -99.99 -9.99
2019/11/17 09:54 PST    3.57   3.82    2  320    4  58.8  57.4 1020.8 -9.9 -9.999 -99.9 -99.99 -9.99
2019/11/17 10:00 PST    3.61   3.84    2  321    3  59.4  57.4 1020.8 -9.9 -9.999 -99.9 -99.99 -9.99
2019/11/17 10:06 PST    3.66   3.87    3  324    4  59.7  57.4 1020.8 -9.9 -9.999 -99.9 -99.99 -9.99
2019/11/17 10:12 PST    3.71   3.93    4  320    5  60.1  57.4 1020.8 -9.9 -9.999 -99.9 -99.99 -9.99
2019/11/17 10:18 PST    3.76   4.01    3  320    5  60.4  57.4 1020.8 -9.9 -9.999 -99.9 -99.99 -9.99
2019/11/17 10:24 PST    3.82   4.05    3  316    5  60.6  57.4 1020.7 -9.9 -9.999 -99.9 -99.99 -9.99
2019/11/17 10:30 PST    3.87   4.09    4  321    6  60.6  57.4 1020.6 -9.9 -9.999 -99.9 -99.99 -9.99
2019/11/17 10:36 PST    3.94   4.16    3  334    5  60.8  57.4 1020.5 -9.9 -9.999 -99.9 -99.99 -9.99
2019/11/17 10:42 PST    4.00   4.23    4  328    5  61.0  57.4 1020.4 -9.9 -9.999 -99.9 -99.99 -9.99
2019/11/17 10:48 PST    4.07   4.30    4  322    5  61.5  57.4 1020.4 -9.9 -9.999 -99.9 -99.99 -9.99
2019/11/17 10:54 PST    4.14   4.37    3  316    5  62.4  57.4 1020.3 -9.9 -9.999 -99.9 -99.99 -9.99
2019/11/17 11:00 PST    4.22   4.46    4  323    5  62.6  57.4 1020.2 -9.9 -9.999 -99.9 -99.99 -9.99
2019/11/17 11:06 PST    4.29   4.54    3  322    5  63.5  57.4 1020.1 -9.9 -9.999 -99.9 -99.99 -9.99
2019/11/17 11:12 PST    4.37   4.63    4  322    5  63.7  57.4 1020.1 -9.9 -9.999 -99.9 -99.99 -9.99
2019/11/17 11:18 PST    4.45   4.71    4  320    5  64.0  57.4 1019.9 -9.9 -9.999 -99.9 -99.99 -9.99
2019/11/17 11:24 PST    4.53   4.82    4  318    5  64.6  57.4 1019.8 -9.9 -9.999 -99.9 -99.99 -9.99
2019/11/17 11:30 PST    4.62   4.91    4  290    5  65.1  57.4 1019.7 -9.9 -9.999 -99.9 -99.99 -9.99
2019/11/17 11:36 PST    4.70   4.99    4  294    5  65.1  57.4 1019.5 -9.9 -9.999 -99.9 -99.99 -9.99
2019/11/17 11:42 PST    4.78   5.07    4  286    5  64.9  57.4 1019.4 -9.9 -9.999 -99.9 -99.99 -9.99
2019/11/17 11:48 PST    4.87   5.15    4  323    5  64.8  57.4 1019.3 -9.9 -9.999 -99.9 -99.99 -9.99
2019/11/17 11:54 PST    4.95   5.24    2  317    5  65.1  57.4 1019.2 -9.9 -9.999 -99.9 -99.99 -9.99
2019/11/17 12:00 PST    5.04   5.33    3  331    4  65.5  57.4 1019.1 -9.9 -9.999 -99.9 -99.99 -9.99
2019/11/17 12:06 PST    5.12   5.42    5  313    6  65.8  57.4 1019.0 -9.9 -9.999 -99.9 -99.99 -9.99
2019/11/17 12:12 PST    5.21   5.48    4  313    9  64.9  57.4 1019.0 -9.9 -9.999 -99.9 -99.99 -9.99
2019/11/17 12:18 PST    5.29   5.51    4  323    6  65.3  57.4 1018.9 -9.9 -9.999 -99.9 -99.99 -9.99
2019/11/17 12:24 PST    5.37   5.56    4  322    6  65.8  57.4 1018.8 -9.9 -9.999 -99.9 -99.99 -9.99
2019/11/17 12:30 PST    5.45   5.63    4  317    6  66.2  57.4 1018.6 -9.9 -9.999 -99.9 -99.99 -9.99
2019/11/17 12:36 PST    5.53   5.71    4  309    6  66.7  57.4 1018.6 -9.9 -9.999 -99.9 -99.99 -9.99
2019/11/17 12:42 PST    5.61   5.75    3  316    6  67.1  57.4 1018.5 -9.9 -9.999 -99.9 -99.99 -9.99
2019/11/17 12:48 PST    5.68   5.83    3  310    4  68.0  57.4 1018.4 -9.9 -9.999 -99.9 -99.99 -9.99
2019/11/17 12:54 PST    5.75   5.89    5  284    6  67.1  57.4 1018.3 -9.9 -9.999 -99.9 -99.99 -9.99
2019/11/17 13:00 PST    5.81   5.95    5  286    7  67.3  57.4 1018.3 -9.9 -9.999 -99.9 -99.99 -9.99
2019/11/17 13:06 PST    5.88   6.04    5  286    6  67.1  57.4 1018.2 -9.9 -9.999 -99.9 -99.99 -9.99
2019/11/17 13:12 PST    5.94   6.13    3  296    5  68.0  57.4 1018.1 -9.9 -9.999 -99.9 -99.99 -9.99
2019/11/17 13:18 PST    5.99   6.18    3  310    4  68.5  57.4 1018.0 -9.9 -9.999 -99.9 -99.99 -9.99
2019/11/17 13:24 PST    6.04   6.23    3  335    4  68.9  57.4 1017.9 -9.9 -9.999 -99.9 -99.99 -9.99
2019/11/17 13:30 PST    6.09   6.30    2  300    5  69.8  57.4 1017.8 -9.9 -9.999 -99.9 -99.99 -9.99
2019/11/17 13:36 PST    6.13   6.35    3  282    4  69.1  57.4 1017.7 -9.9 -9.999 -99.9 -99.99 -9.99
2019/11/17 13:42 PST    6.17   6.39    4  296    5  70.0  57.4 1017.7 -9.9 -9.999 -99.9 -99.99 -9.99
2019/11/17 13:48 PST    6.21   6.43    4  295    5  70.2  57.4 1017.6 -9.9 -9.999 -99.9 -99.99 -9.99
2019/11/17 13:54 PST    6.24   6.46    4  289    6  70.0  57.4 1017.6 -9.9 -9.999 -99.9 -99.99 -9.99
2019/11/17 14:00 PST    6.26   6.46    5  285    6  70.0  57.4 1017.6 -9.9 -9.999 -99.9 -99.99 -9.99
2019/11/17 14:06 PST    6.28   6.46    5  285    7  69.6  57.4 1017.5 -9.9 -9.999 -99.9 -99.99 -9.99
2019/11/17 14:12 PST    6.29   6.48    5  283    7  69.4  57.4 1017.4 -9.9 -9.999 -99.9 -99.99 -9.99
2019/11/17 14:18 PST    6.30   6.50    6  285    7  68.5  57.4 1017.3 -9.9 -9.999 -99.9 -99.99 -9.99
2019/11/17 14:24 PST    6.31   6.50    6  284    7  68.5  57.4 1017.3 -9.9 -9.999 -99.9 -99.99 -9.99
2019/11/17 14:30 PST    6.30   6.48    6  285    7  68.5  57.6 1017.3 -9.9 -9.999 -99.9 -99.99 -9.99
2019/11/17 14:36 PST    6.30   6.44    5  285    7  68.4  57.6 1017.3 -9.9 -9.999 -99.9 -99.99 -9.99
2019/11/17 14:42 PST    6.28   6.40    6  286    7  68.5  57.6 1017.3 -9.9 -9.999 -99.9 -99.99 -9.99
2019/11/17 14:48 PST    6.27   6.41    6  287    7  68.2  57.6 1017.2 -9.9 -9.999 -99.9 -99.99 -9.99
2019/11/17 14:54 PST    6.24   6.42    5  287    6  68.5  57.6 1017.2 -9.9 -9.999 -99.9 -99.99 -9.99
2019/11/17 15:00 PST    6.21   6.37    5  288    6  68.5  57.7 1017.2 -9.9 -9.999 -99.9 -99.99 -9.99
2019/11/17 15:06 PST    6.18   6.31    4  287    6  68.9  57.7 1017.1 -9.9 -9.999 -99.9 -99.99 -9.99
2019/11/17 15:12 PST    6.14   6.26    5  288    6  69.3  57.7 1017.1 -9.9 -9.999 -99.9 -99.99 -9.99
2019/11/17 15:18 PST    6.09   6.21    4  291    5  69.6  57.7 1017.0 -9.9 -9.999 -99.9 -99.99 -9.99
2019/11/17 15:24 PST    6.04   6.15    3  301    5  70.2  57.7 1016.9 -9.9 -9.999 -99.9 -99.99 -9.99
2019/11/17 15:30 PST    5.98   6.09    3  290    4  70.5  57.7 1016.8 -9.9 -9.999 -99.9 -99.99 -9.99
2019/11/17 15:36 PST    5.91   6.00    4  308    5  70.7  57.9 1016.8 -9.9 -9.999 -99.9 -99.99 -9.99
2019/11/17 15:42 PST    5.84   5.89    3  305    5  70.9  57.9 1016.8 -9.9 -9.999 -99.9 -99.99 -9.99
2019/11/17 15:48 PST    5.77   5.79    3  297    5  70.7  57.9 1016.7 -9.9 -9.999 -99.9 -99.99 -9.99
2019/11/17 15:54 PST    5.68   5.69    3  304    4  71.1  57.9 1016.7 -9.9 -9.999 -99.9 -99.99 -9.99
2019/11/17 16:00 PST    5.60   5.56    3  308    5  71.1  57.9 1016.7 -9.9 -9.999 -99.9 -99.99 -9.99
2019/11/17 16:06 PST    5.50   5.45    4  301    5  70.7  57.9 1016.6 -9.9 -9.999 -99.9 -99.99 -9.99
2019/11/17 16:12 PST    5.40   5.35    3  304    4  70.7  57.9 1016.6 -9.9 -9.999 -99.9 -99.99 -9.99
2019/11/17 16:18 PST    5.30   5.23    2  325    4  70.5  57.9 1016.5 -9.9 -9.999 -99.9 -99.99 -9.99
2019/11/17 16:24 PST    5.19   5.11    2  302    4  70.7  57.9 1016.5 -9.9 -9.999 -99.9 -99.99 -9.99
2019/11/17 16:30 PST    5.07   4.98    3  293    4  70.0  57.9 1016.4 -9.9 -9.999 -99.9 -99.99 -9.99
2019/11/17 16:36 PST    4.95   4.82    3  299    4  69.1  57.9 1016.4 -9.9 -9.999 -99.9 -99.99 -9.99
2019/11/17 16:42 PST    4.83   4.69    3  308    4  68.5  57.9 1016.3 -9.9 -9.999 -99.9 -99.99 -9.99
2019/11/17 16:48 PST    4.70   4.55    3  312    4  68.5  58.1 1016.3 -9.9 -9.999 -99.9 -99.99 -9.99
2019/11/17 16:54 PST    4.57   4.44    3  314    3  68.4  58.1 1016.3 -9.9 -9.999 -99.9 -99.99 -9.99
2019/11/17 17:00 PST    4.43   4.32    3  335    4  68.0  58.1 1016.3 -9.9 -9.999 -99.9 -99.99 -9.99
2019/11/17 17:06 PST    4.29   4.19    3  306    4  68.2  58.1 1016.4 -9.9 -9.999 -99.9 -99.99 -9.99
2019/11/17 17:12 PST    4.14   4.04    2  335    4  67.6  58.1 1016.4 -9.9 -9.999 -99.9 -99.99 -9.99
2019/11/17 17:18 PST    3.99   3.88    3  335    4  67.5  58.1 1016.4 -9.9 -9.999 -99.9 -99.99 -9.99
2019/11/17 17:24 PST    3.84   3.71    2  347    4  67.5  58.1 1016.4 -9.9 -9.999 -99.9 -99.99 -9.99
2019/11/17 17:30 PST    3.69   3.59    3  334    4  67.1  58.1 1016.4 -9.9 -9.999 -99.9 -99.99 -9.99
2019/11/17 17:36 PST    3.53   3.48    2  340    4  66.9  58.1 1016.4 -9.9 -9.999 -99.9 -99.99 -9.99
2019/11/17 17:42 PST    3.37   3.33    2  341    3  66.6  58.1 1016.5 -9.9 -9.999 -99.9 -99.99 -9.99
2019/11/17 17:48 PST    3.22   3.16    2  344    4  66.4  58.1 1016.5 -9.9 -9.999 -99.9 -99.99 -9.99
2019/11/17 17:54 PST    3.06   3.00    3  344    4  66.0  58.1 1016.5 -9.9 -9.999 -99.9 -99.99 -9.99
2019/11/17 18:00 PST    2.90   2.86    3  330    4  65.8  58.1 1016.5 -9.9 -9.999 -99.9 -99.99 -9.99
2019/11/17 18:06 PST    2.74   2.72    3  342    4  65.7  58.1 1016.4 -9.9 -9.999 -99.9 -99.99 -9.99
2019/11/17 18:12 PST    2.58   2.61    4  346    4  65.3  58.1 1016.4 -9.9 -9.999 -99.9 -99.99 -9.99
2019/11/17 18:18 PST    2.42   2.49    4  346    5  64.6  58.1 1016.5 -9.9 -9.999 -99.9 -99.99 -9.99
2019/11/17 18:24 PST    2.27   2.36    4  348    5  64.2  58.1 1016.5 -9.9 -9.999 -99.9 -99.99 -9.99
2019/11/17 18:30 PST    2.11   2.23    4  360    5  63.5  58.1 1016.4 -9.9 -9.999 -99.9 -99.99 -9.99
2019/11/17 18:36 PST    1.96   2.11    3   20    4  63.5  58.1 1016.4 -9.9 -9.999 -99.9 -99.99 -9.99
2019/11/17 18:42 PST    1.82   1.99    3   13    4  63.5  58.1 1016.4 -9.9 -9.999 -99.9 -99.99 -9.99
2019/11/17 18:48 PST    1.67   1.89    3    3    5  63.1  58.1 1016.4 -9.9 -9.999 -99.9 -99.99 -9.99
2019/11/17 18:54 PST    1.53   1.76    2   24    4  63.0  58.1 1016.4 -9.9 -9.999 -99.9 -99.99 -9.99
2019/11/17 19:00 PST    1.39   1.64    3   17    4  63.1  58.1 1016.4 -9.9 -9.999 -99.9 -99.99 -9.99
2019/11/17 19:06 PST    1.26   1.53    3   12    4  62.8  58.3 1016.4 -9.9 -9.999 -99.9 -99.99 -9.99
2019/11/17 19:12 PST    1.13   1.43    3   29    4  62.8  58.3 1016.5 -9.9 -9.999 -99.9 -99.99 -9.99
2019/11/17 19:18 PST    1.00   1.32    2   85    3  62.1  58.3 1016.6 -9.9 -9.999 -99.9 -99.99 -9.99
2019/11/17 19:24 PST    0.88   1.20    2   95    3  62.1  58.3 1016.6 -9.9 -9.999 -99.9 -99.99 -9.99
2019/11/17 19:30 PST    0.77   1.11    3   94    4  62.4  58.3 1016.5 -9.9 -9.999 -99.9 -99.99 -9.99
2019/11/17 19:36 PST    0.66   1.03    0  125    3  62.4  58.3 1016.6 -9.9 -9.999 -99.9 -99.99 -9.99
2019/11/17 19:42 PST    0.56   0.93    0  117    1  62.2  58.3 1016.5 -9.9 -9.999 -99.9 -99.99 -9.99
2019/11/17 19:48 PST    0.46   0.82    0  112    1  61.9  58.3 1016.5 -9.9 -9.999 -99.9 -99.99 -9.99
2019/11/17 19:54 PST    0.37   0.72    0   99    2  61.9  58.3 1016.5 -9.9 -9.999 -99.9 -99.99 -9.99
2019/11/17 20:00 PST    0.28   0.62    2   22    3  61.7  58.3 1016.5 -9.9 -9.999 -99.9 -99.99 -9.99
2019/11/17 20:06 PST    0.20   0.55    2   21    4  61.5  58.3 1016.5 -9.9 -9.999 -99.9 -99.99 -9.99
2019/11/17 20:12 PST    0.12   0.49    4  352    4  61.2  58.3 1016.5 -9.9 -9.999 -99.9 -99.99 -9.99
2019/11/17 20:18 PST    0.05   0.41    3    5    4  61.3  58.5 1016.5 -9.9 -9.999 -99.9 -99.99 -9.99
2019/11/17 20:24 PST   -0.01   0.36    3   16    4  61.3  58.5 1016.5 -9.9 -9.999 -99.9 -99.99 -9.99
2019/11/17 20:30 PST   -0.07   0.28    3    4    3  61.2  58.5 1016.5 -9.9 -9.999 -99.9 -99.99 -9.99
2019/11/17 20:36 PST   -0.12   0.20    2   27    3  61.3  58.3 1016.5 -9.9 -9.999 -99.9 -99.99 -9.99
2019/11/17 20:42 PST   -0.16   0.11    2   24    4  61.2  58.5 1016.5 -9.9 -9.999 -99.9 -99.99 -9.99
2019/11/17 20:48 PST   -0.21   0.09    2   28    4  60.8  58.5 1016.5 -9.9 -9.999 -99.9 -99.99 -9.99
2019/11/17 20:54 PST   -0.24   0.05    2   32    4  60.6  58.5 1016.5 -9.9 -9.999 -99.9 -99.99 -9.99
2019/11/17 21:00 PST   -0.27  -0.01    2   49    4  60.6  58.5 1016.5 -9.9 -9.999 -99.9 -99.99 -9.99
2019/11/17 21:06 PST   -0.29  -0.05    2   20    4  60.4  58.5 1016.5 -9.9 -9.999 -99.9 -99.99 -9.99
2019/11/17 21:12 PST   -0.31  -0.07    3   10    4  60.3  58.5 1016.5 -9.9 -9.999 -99.9 -99.99 -9.99
2019/11/17 21:18 PST   -0.32  -0.10    3   14    4  60.3  58.5 1016.5 -9.9 -9.999 -99.9 -99.99 -9.99
2019/11/17 21:24 PST   -0.33  -0.12    3    9    4  60.1  58.5 1016.5 -9.9 -9.999 -99.9 -99.99 -9.99
2019/11/17 21:30 PST   -0.33  -0.12    4  345    5  60.3  58.5 1016.5 -9.9 -9.999 -99.9 -99.99 -9.99
2019/11/17 21:36 PST   -0.33  -0.11    4  349    5  60.1  58.5 1016.5 -9.9 -9.999 -99.9 -99.99 -9.99
2019/11/17 21:42 PST   -0.32  -0.11    4  357    4  59.9  58.5 1016.6 -9.9 -9.999 -99.9 -99.99 -9.99
2019/11/17 21:48 PST   -0.31  -0.11    4  346    4  59.9  58.5 1016.6 -9.9 -9.999 -99.9 -99.99 -9.99
2019/11/17 21:54 PST   -0.29  -0.12    4  351    4  59.9  58.5 1016.6 -9.9 -9.999 -99.9 -99.99 -9.99
2019/11/17 22:00 PST   -0.27  -0.13    1    1    3  59.7  58.5 1016.7 -9.9 -9.999 -99.9 -99.99 -9.99
2019/11/17 22:06 PST   -0.24  -0.12    1   62    2  59.9  58.5 1016.7 -9.9 -9.999 -99.9 -99.99 -9.99
2019/11/17 22:12 PST   -0.21  -0.08    0  167    1  59.5  58.5 1016.7 -9.9 -9.999 -99.9 -99.99 -9.99
2019/11/17 22:18 PST   -0.17  -0.04    1  356    2  59.2  58.5 1016.7 -9.9 -9.999 -99.9 -99.99 -9.99
2019/11/17 22:24 PST   -0.13   0.01    2   21    3  59.4  58.5 1016.8 -9.9 -9.999 -99.9 -99.99 -9.99
2019/11/17 22:30 PST   -0.08   0.05    2   25    3  59.2  58.5 1016.8 -9.9 -9.999 -99.9 -99.99 -9.99
2019/11/17 22:36 PST   -0.03   0.11    2    1    3  59.2  58.5 1016.7 -9.9 -9.999 -99.9 -99.99 -9.99
2019/11/17 22:42 PST    0.03   0.18    3  345    4  59.4  58.5 1016.8 -9.9 -9.999 -99.9 -99.99 -9.99
2019/11/17 22:48 PST    0.09   0.24    2   16    4  59.0  58.5 1016.8 -9.9 -9.999 -99.9 -99.99 -9.99
2019/11/17 22:54 PST    0.15   0.28    3  356    4  58.6  58.3 1016.9 -9.9 -9.999 -99.9 -99.99 -9.99
2019/11/17 23:00 PST    0.22 -99.99 -999 -999 -999 -99.9 -99.9 -999.9 -9.9 -9.999 -99.9 -99.99 -9.99
2019/11/17 23:06 PST    0.30 -99.99 -999 -999 -999 -99.9 -99.9 -999.9 -9.9 -9.999 -99.9 -99.99 -9.99
2019/11/17 23:12 PST    0.37 -99.99 -999 -999 -999 -99.9 -99.9 -999.9 -9.9 -9.999 -99.9 -99.99 -9.99